<?xml version="1.0" encoding="UTF-8" standalone="no" ?>
<gpx xmlns="http://www.topografix.com/GPX/1/1" xmlns:xsi="http://www.w3.org/2001/XMLSchema-instance" xsi:schemaLocation="http://www.topografix.com/GPX/1/1 http://www.topografix.com/GPX/1/1/gpx.xsd" version="1.1" creator="VisuGPX - https://www.visugpx.com">
  <metadata>
    <name>L'Herbe- La Vigne</name>
    <desc><![CDATA[Marche de ca 10 kms ]]></desc>
  </metadata>
  <trk>
    <name><![CDATA[Marche L'Herbe La Vigne]]></name>
    <extensions>
      <line xmlns="http://www.topografix.com/GPX/gpx_style/0/2">
        <color>0000FF</color>
        <width>4</width>
      </line>
    </extensions>
    <trkseg>
      <trkpt lat="44.6902" lon="-1.2317">
        <ele>-28.22</ele>
        <time>2024-07-18T05:56:17Z</time>
      </trkpt>
      <trkpt lat="44.69018" lon="-1.23166">
        <ele>-33.51</ele>
        <time>2024-07-18T05:56:19Z</time>
      </trkpt>
      <trkpt lat="44.69015" lon="-1.23161">
        <ele>-29.18</ele>
        <time>2024-07-18T05:56:20Z</time>
      </trkpt>
      <trkpt lat="44.6901" lon="-1.23153">
        <ele>-33.51</ele>
        <time>2024-07-18T05:56:23Z</time>
      </trkpt>
      <trkpt lat="44.6901" lon="-1.23154">
        <ele>-29.66</ele>
        <time>2024-07-18T05:56:24Z</time>
      </trkpt>
      <trkpt lat="44.69009" lon="-1.23153">
        <ele>-27.26</ele>
        <time>2024-07-18T05:56:25Z</time>
      </trkpt>
      <trkpt lat="44.69007" lon="-1.23149">
        <ele>-24.38</ele>
        <time>2024-07-18T05:56:27Z</time>
      </trkpt>
      <trkpt lat="44.69006" lon="-1.23147">
        <ele>-34.47</ele>
        <time>2024-07-18T05:56:28Z</time>
      </trkpt>
      <trkpt lat="44.69004" lon="-1.23144">
        <ele>-24.38</ele>
        <time>2024-07-18T05:56:30Z</time>
      </trkpt>
      <trkpt lat="44.69002" lon="-1.23144">
        <ele>-28.7</ele>
        <time>2024-07-18T05:56:31Z</time>
      </trkpt>
      <trkpt lat="44.69001" lon="-1.23144">
        <ele>-29.18</ele>
        <time>2024-07-18T05:56:32Z</time>
      </trkpt>
      <trkpt lat="44.68991" lon="-1.23139">
        <ele>-29.18</ele>
        <time>2024-07-18T05:56:41Z</time>
      </trkpt>
      <trkpt lat="44.68988" lon="-1.23137">
        <ele>-28.7</ele>
        <time>2024-07-18T05:56:44Z</time>
      </trkpt>
      <trkpt lat="44.68987" lon="-1.23135">
        <ele>-33.51</ele>
        <time>2024-07-18T05:56:47Z</time>
      </trkpt>
      <trkpt lat="44.68986" lon="-1.23134">
        <ele>-32.55</ele>
        <time>2024-07-18T05:56:48Z</time>
      </trkpt>
      <trkpt lat="44.68983" lon="-1.23133">
        <ele>-27.74</ele>
        <time>2024-07-18T05:56:50Z</time>
      </trkpt>
      <trkpt lat="44.68981" lon="-1.23133">
        <ele>-28.7</ele>
        <time>2024-07-18T05:56:51Z</time>
      </trkpt>
      <trkpt lat="44.68967" lon="-1.2313">
        <ele>-29.18</ele>
        <time>2024-07-18T05:57:02Z</time>
      </trkpt>
      <trkpt lat="44.68964" lon="-1.23129">
        <ele>-28.7</ele>
        <time>2024-07-18T05:57:04Z</time>
      </trkpt>
      <trkpt lat="44.68952" lon="-1.23124">
        <ele>-29.66</ele>
        <time>2024-07-18T05:57:13Z</time>
      </trkpt>
      <trkpt lat="44.68939" lon="-1.23125">
        <ele>-29.18</ele>
        <time>2024-07-18T05:57:22Z</time>
      </trkpt>
      <trkpt lat="44.68925" lon="-1.2313">
        <ele>-29.66</ele>
        <time>2024-07-18T05:57:32Z</time>
      </trkpt>
      <trkpt lat="44.68914" lon="-1.23139">
        <ele>-29.18</ele>
        <time>2024-07-18T05:57:42Z</time>
      </trkpt>
      <trkpt lat="44.68901" lon="-1.23147">
        <ele>-28.22</ele>
        <time>2024-07-18T05:57:53Z</time>
      </trkpt>
      <trkpt lat="44.68895" lon="-1.23153">
        <ele>-30.14</ele>
        <time>2024-07-18T05:58:01Z</time>
      </trkpt>
      <trkpt lat="44.68887" lon="-1.23161">
        <ele>-29.66</ele>
        <time>2024-07-18T05:58:11Z</time>
      </trkpt>
      <trkpt lat="44.68885" lon="-1.23163">
        <ele>-28.7</ele>
        <time>2024-07-18T05:58:13Z</time>
      </trkpt>
      <trkpt lat="44.68875" lon="-1.2317">
        <ele>-30.14</ele>
        <time>2024-07-18T05:58:24Z</time>
      </trkpt>
      <trkpt lat="44.68874" lon="-1.23171">
        <ele>-30.14</ele>
        <time>2024-07-18T05:58:25Z</time>
      </trkpt>
      <trkpt lat="44.68864" lon="-1.23175">
        <ele>-29.66</ele>
        <time>2024-07-18T05:58:36Z</time>
      </trkpt>
      <trkpt lat="44.68855" lon="-1.23181">
        <ele>-30.14</ele>
        <time>2024-07-18T05:58:45Z</time>
      </trkpt>
      <trkpt lat="44.68849" lon="-1.23185">
        <ele>-29.18</ele>
        <time>2024-07-18T05:58:51Z</time>
      </trkpt>
      <trkpt lat="44.68838" lon="-1.23193">
        <ele>-29.18</ele>
        <time>2024-07-18T05:59:01Z</time>
      </trkpt>
      <trkpt lat="44.68824" lon="-1.232">
        <ele>-30.14</ele>
        <time>2024-07-18T05:59:05Z</time>
      </trkpt>
      <trkpt lat="44.68796" lon="-1.23219">
        <ele>-28.7</ele>
        <time>2024-07-18T05:59:16Z</time>
      </trkpt>
      <trkpt lat="44.68777" lon="-1.2323">
        <ele>-30.14</ele>
        <time>2024-07-18T05:59:23Z</time>
      </trkpt>
      <trkpt lat="44.68771" lon="-1.23232">
        <ele>-29.18</ele>
        <time>2024-07-18T05:59:26Z</time>
      </trkpt>
      <trkpt lat="44.68761" lon="-1.23236">
        <ele>-28.7</ele>
        <time>2024-07-18T05:59:33Z</time>
      </trkpt>
      <trkpt lat="44.6875" lon="-1.23247">
        <ele>-29.66</ele>
        <time>2024-07-18T05:59:42Z</time>
      </trkpt>
      <trkpt lat="44.68747" lon="-1.23253">
        <ele>-30.14</ele>
        <time>2024-07-18T05:59:47Z</time>
      </trkpt>
      <trkpt lat="44.68734" lon="-1.23272">
        <ele>-28.7</ele>
        <time>2024-07-18T05:59:59Z</time>
      </trkpt>
      <trkpt lat="44.68727" lon="-1.23288">
        <ele>-29.18</ele>
        <time>2024-07-18T06:00:09Z</time>
      </trkpt>
      <trkpt lat="44.68729" lon="-1.23299">
        <ele>-29.66</ele>
        <time>2024-07-18T06:00:23Z</time>
      </trkpt>
      <trkpt lat="44.68727" lon="-1.23305">
        <ele>-29.66</ele>
        <time>2024-07-18T06:00:37Z</time>
      </trkpt>
      <trkpt lat="44.68726" lon="-1.23306">
        <ele>-29.66</ele>
        <time>2024-07-18T06:00:51Z</time>
      </trkpt>
      <trkpt lat="44.68725" lon="-1.23321">
        <ele>-29.18</ele>
        <time>2024-07-18T06:01:05Z</time>
      </trkpt>
      <trkpt lat="44.68721" lon="-1.23337">
        <ele>-28.7</ele>
        <time>2024-07-18T06:01:20Z</time>
      </trkpt>
      <trkpt lat="44.68722" lon="-1.2334">
        <ele>-29.18</ele>
        <time>2024-07-18T06:01:22Z</time>
      </trkpt>
      <trkpt lat="44.6872" lon="-1.23365">
        <ele>-24.38</ele>
        <time>2024-07-18T06:01:28Z</time>
      </trkpt>
      <trkpt lat="44.68719" lon="-1.2337">
        <ele>-20.05</ele>
        <time>2024-07-18T06:01:29Z</time>
      </trkpt>
      <trkpt lat="44.68719" lon="-1.23375">
        <ele>-15.24</ele>
        <time>2024-07-18T06:01:30Z</time>
      </trkpt>
      <trkpt lat="44.68718" lon="-1.2338">
        <ele>-11.88</ele>
        <time>2024-07-18T06:01:31Z</time>
      </trkpt>
      <trkpt lat="44.68717" lon="-1.23384">
        <ele>-8.03</ele>
        <time>2024-07-18T06:01:32Z</time>
      </trkpt>
      <trkpt lat="44.68717" lon="-1.23388">
        <ele>-4.19</ele>
        <time>2024-07-18T06:01:33Z</time>
      </trkpt>
      <trkpt lat="44.68716" lon="-1.23392">
        <ele>-0.82</ele>
        <time>2024-07-18T06:01:34Z</time>
      </trkpt>
      <trkpt lat="44.68716" lon="-1.23395">
        <ele>2.54</ele>
        <time>2024-07-18T06:01:35Z</time>
      </trkpt>
      <trkpt lat="44.68717" lon="-1.23396">
        <ele>7.83</ele>
        <time>2024-07-18T06:01:37Z</time>
      </trkpt>
      <trkpt lat="44.68717" lon="-1.23396">
        <ele>11.67</ele>
        <time>2024-07-18T06:01:38Z</time>
      </trkpt>
      <trkpt lat="44.68717" lon="-1.23395">
        <ele>16.96</ele>
        <time>2024-07-18T06:01:40Z</time>
      </trkpt>
      <trkpt lat="44.68718" lon="-1.23395">
        <ele>22.25</ele>
        <time>2024-07-18T06:01:42Z</time>
      </trkpt>
      <trkpt lat="44.68718" lon="-1.23394">
        <ele>26.57</ele>
        <time>2024-07-18T06:01:44Z</time>
      </trkpt>
      <trkpt lat="44.68718" lon="-1.23394">
        <ele>30.9</ele>
        <time>2024-07-18T06:01:46Z</time>
      </trkpt>
      <trkpt lat="44.68718" lon="-1.23394">
        <ele>34.26</ele>
        <time>2024-07-18T06:01:48Z</time>
      </trkpt>
      <trkpt lat="44.68716" lon="-1.23398">
        <ele>38.11</ele>
        <time>2024-07-18T06:01:50Z</time>
      </trkpt>
      <trkpt lat="44.68714" lon="-1.23401">
        <ele>41.47</ele>
        <time>2024-07-18T06:01:52Z</time>
      </trkpt>
      <trkpt lat="44.68713" lon="-1.23405">
        <ele>44.36</ele>
        <time>2024-07-18T06:01:54Z</time>
      </trkpt>
      <trkpt lat="44.68714" lon="-1.23408">
        <ele>48.68</ele>
        <time>2024-07-18T06:01:57Z</time>
      </trkpt>
      <trkpt lat="44.68714" lon="-1.23412">
        <ele>52.53</ele>
        <time>2024-07-18T06:02:01Z</time>
      </trkpt>
      <trkpt lat="44.68715" lon="-1.23412">
        <ele>52.53</ele>
        <time>2024-07-18T06:02:02Z</time>
      </trkpt>
      <trkpt lat="44.68715" lon="-1.23414">
        <ele>54.45</ele>
        <time>2024-07-18T06:02:05Z</time>
      </trkpt>
      <trkpt lat="44.68717" lon="-1.23415">
        <ele>57.82</ele>
        <time>2024-07-18T06:02:12Z</time>
      </trkpt>
      <trkpt lat="44.6872" lon="-1.2342">
        <ele>59.26</ele>
        <time>2024-07-18T06:02:27Z</time>
      </trkpt>
      <trkpt lat="44.6872" lon="-1.23428">
        <ele>59.74</ele>
        <time>2024-07-18T06:02:45Z</time>
      </trkpt>
      <trkpt lat="44.68717" lon="-1.23436">
        <ele>59.26</ele>
        <time>2024-07-18T06:03:00Z</time>
      </trkpt>
      <trkpt lat="44.68716" lon="-1.2344">
        <ele>59.74</ele>
        <time>2024-07-18T06:03:17Z</time>
      </trkpt>
      <trkpt lat="44.68715" lon="-1.2344">
        <ele>59.26</ele>
        <time>2024-07-18T06:03:19Z</time>
      </trkpt>
      <trkpt lat="44.68704" lon="-1.23455">
        <ele>59.26</ele>
        <time>2024-07-18T06:03:29Z</time>
      </trkpt>
      <trkpt lat="44.68701" lon="-1.23462">
        <ele>59.74</ele>
        <time>2024-07-18T06:03:35Z</time>
      </trkpt>
      <trkpt lat="44.68703" lon="-1.23473">
        <ele>59.74</ele>
        <time>2024-07-18T06:03:45Z</time>
      </trkpt>
      <trkpt lat="44.68706" lon="-1.23479">
        <ele>59.74</ele>
        <time>2024-07-18T06:03:51Z</time>
      </trkpt>
      <trkpt lat="44.68707" lon="-1.23484">
        <ele>58.3</ele>
        <time>2024-07-18T06:03:57Z</time>
      </trkpt>
      <trkpt lat="44.68713" lon="-1.2349">
        <ele>57.82</ele>
        <time>2024-07-18T06:04:07Z</time>
      </trkpt>
      <trkpt lat="44.68714" lon="-1.23493">
        <ele>59.26</ele>
        <time>2024-07-18T06:04:10Z</time>
      </trkpt>
      <trkpt lat="44.68714" lon="-1.23495">
        <ele>59.26</ele>
        <time>2024-07-18T06:04:13Z</time>
      </trkpt>
      <trkpt lat="44.68715" lon="-1.23505">
        <ele>59.26</ele>
        <time>2024-07-18T06:04:23Z</time>
      </trkpt>
      <trkpt lat="44.6872" lon="-1.23511">
        <ele>59.74</ele>
        <time>2024-07-18T06:04:29Z</time>
      </trkpt>
      <trkpt lat="44.68724" lon="-1.23518">
        <ele>57.82</ele>
        <time>2024-07-18T06:04:35Z</time>
      </trkpt>
      <trkpt lat="44.68729" lon="-1.23523">
        <ele>59.74</ele>
        <time>2024-07-18T06:04:38Z</time>
      </trkpt>
      <trkpt lat="44.68733" lon="-1.23535">
        <ele>59.74</ele>
        <time>2024-07-18T06:04:48Z</time>
      </trkpt>
      <trkpt lat="44.68734" lon="-1.23539">
        <ele>57.82</ele>
        <time>2024-07-18T06:04:52Z</time>
      </trkpt>
      <trkpt lat="44.68732" lon="-1.23544">
        <ele>57.82</ele>
        <time>2024-07-18T06:05:01Z</time>
      </trkpt>
      <trkpt lat="44.68733" lon="-1.23545">
        <ele>59.26</ele>
        <time>2024-07-18T06:05:04Z</time>
      </trkpt>
      <trkpt lat="44.68734" lon="-1.23556">
        <ele>59.74</ele>
        <time>2024-07-18T06:05:14Z</time>
      </trkpt>
      <trkpt lat="44.68734" lon="-1.23571">
        <ele>60.22</ele>
        <time>2024-07-18T06:05:24Z</time>
      </trkpt>
      <trkpt lat="44.68735" lon="-1.23576">
        <ele>58.3</ele>
        <time>2024-07-18T06:05:27Z</time>
      </trkpt>
      <trkpt lat="44.68735" lon="-1.23579">
        <ele>59.74</ele>
        <time>2024-07-18T06:05:29Z</time>
      </trkpt>
      <trkpt lat="44.68733" lon="-1.23586">
        <ele>60.22</ele>
        <time>2024-07-18T06:05:40Z</time>
      </trkpt>
      <trkpt lat="44.68732" lon="-1.23594">
        <ele>59.74</ele>
        <time>2024-07-18T06:05:52Z</time>
      </trkpt>
      <trkpt lat="44.68729" lon="-1.23601">
        <ele>60.22</ele>
        <time>2024-07-18T06:06:02Z</time>
      </trkpt>
      <trkpt lat="44.68727" lon="-1.23604">
        <ele>58.3</ele>
        <time>2024-07-18T06:06:06Z</time>
      </trkpt>
      <trkpt lat="44.68717" lon="-1.23615">
        <ele>59.74</ele>
        <time>2024-07-18T06:06:16Z</time>
      </trkpt>
      <trkpt lat="44.68709" lon="-1.23623">
        <ele>59.74</ele>
        <time>2024-07-18T06:06:20Z</time>
      </trkpt>
      <trkpt lat="44.68699" lon="-1.2364">
        <ele>58.3</ele>
        <time>2024-07-18T06:06:33Z</time>
      </trkpt>
      <trkpt lat="44.68694" lon="-1.23653">
        <ele>57.82</ele>
        <time>2024-07-18T06:06:45Z</time>
      </trkpt>
      <trkpt lat="44.68693" lon="-1.23654">
        <ele>58.78</ele>
        <time>2024-07-18T06:06:47Z</time>
      </trkpt>
      <trkpt lat="44.68692" lon="-1.23661">
        <ele>59.26</ele>
        <time>2024-07-18T06:06:59Z</time>
      </trkpt>
      <trkpt lat="44.68692" lon="-1.23662">
        <ele>58.78</ele>
        <time>2024-07-18T06:07:00Z</time>
      </trkpt>
      <trkpt lat="44.68682" lon="-1.23674">
        <ele>57.82</ele>
        <time>2024-07-18T06:07:10Z</time>
      </trkpt>
      <trkpt lat="44.68677" lon="-1.23684">
        <ele>58.78</ele>
        <time>2024-07-18T06:07:21Z</time>
      </trkpt>
      <trkpt lat="44.6867" lon="-1.23698">
        <ele>57.82</ele>
        <time>2024-07-18T06:07:31Z</time>
      </trkpt>
      <trkpt lat="44.68667" lon="-1.23702">
        <ele>58.3</ele>
        <time>2024-07-18T06:07:35Z</time>
      </trkpt>
      <trkpt lat="44.68663" lon="-1.23719">
        <ele>57.82</ele>
        <time>2024-07-18T06:07:45Z</time>
      </trkpt>
      <trkpt lat="44.68662" lon="-1.23728">
        <ele>56.37</ele>
        <time>2024-07-18T06:07:50Z</time>
      </trkpt>
      <trkpt lat="44.68662" lon="-1.23732">
        <ele>57.82</ele>
        <time>2024-07-18T06:07:52Z</time>
      </trkpt>
      <trkpt lat="44.68654" lon="-1.23755">
        <ele>57.34</ele>
        <time>2024-07-18T06:08:05Z</time>
      </trkpt>
      <trkpt lat="44.68651" lon="-1.2376">
        <ele>57.82</ele>
        <time>2024-07-18T06:08:11Z</time>
      </trkpt>
      <trkpt lat="44.6865" lon="-1.23763">
        <ele>56.37</ele>
        <time>2024-07-18T06:08:14Z</time>
      </trkpt>
      <trkpt lat="44.68649" lon="-1.23766">
        <ele>57.82</ele>
        <time>2024-07-18T06:08:18Z</time>
      </trkpt>
      <trkpt lat="44.68649" lon="-1.23778">
        <ele>57.82</ele>
        <time>2024-07-18T06:08:28Z</time>
      </trkpt>
      <trkpt lat="44.68646" lon="-1.23788">
        <ele>55.89</ele>
        <time>2024-07-18T06:08:33Z</time>
      </trkpt>
      <trkpt lat="44.68639" lon="-1.23813">
        <ele>57.34</ele>
        <time>2024-07-18T06:08:44Z</time>
      </trkpt>
      <trkpt lat="44.68631" lon="-1.2383">
        <ele>57.82</ele>
        <time>2024-07-18T06:08:52Z</time>
      </trkpt>
      <trkpt lat="44.68626" lon="-1.23844">
        <ele>57.34</ele>
        <time>2024-07-18T06:08:58Z</time>
      </trkpt>
      <trkpt lat="44.68624" lon="-1.23854">
        <ele>57.82</ele>
        <time>2024-07-18T06:09:03Z</time>
      </trkpt>
      <trkpt lat="44.6862" lon="-1.2387">
        <ele>57.82</ele>
        <time>2024-07-18T06:09:13Z</time>
      </trkpt>
      <trkpt lat="44.6862" lon="-1.23874">
        <ele>56.37</ele>
        <time>2024-07-18T06:09:15Z</time>
      </trkpt>
      <trkpt lat="44.6862" lon="-1.23901">
        <ele>56.86</ele>
        <time>2024-07-18T06:09:26Z</time>
      </trkpt>
      <trkpt lat="44.68619" lon="-1.23903">
        <ele>57.34</ele>
        <time>2024-07-18T06:09:27Z</time>
      </trkpt>
      <trkpt lat="44.68616" lon="-1.23931">
        <ele>57.34</ele>
        <time>2024-07-18T06:09:39Z</time>
      </trkpt>
      <trkpt lat="44.68615" lon="-1.23933">
        <ele>57.82</ele>
        <time>2024-07-18T06:09:40Z</time>
      </trkpt>
      <trkpt lat="44.68611" lon="-1.23942">
        <ele>58.3</ele>
        <time>2024-07-18T06:09:45Z</time>
      </trkpt>
      <trkpt lat="44.68609" lon="-1.23969">
        <ele>58.3</ele>
        <time>2024-07-18T06:09:56Z</time>
      </trkpt>
      <trkpt lat="44.68605" lon="-1.23984">
        <ele>57.82</ele>
        <time>2024-07-18T06:10:04Z</time>
      </trkpt>
      <trkpt lat="44.68598" lon="-1.23999">
        <ele>56.37</ele>
        <time>2024-07-18T06:10:15Z</time>
      </trkpt>
      <trkpt lat="44.68598" lon="-1.24001">
        <ele>57.82</ele>
        <time>2024-07-18T06:10:17Z</time>
      </trkpt>
      <trkpt lat="44.68599" lon="-1.24012">
        <ele>57.34</ele>
        <time>2024-07-18T06:10:26Z</time>
      </trkpt>
      <trkpt lat="44.68602" lon="-1.24031">
        <ele>56.86</ele>
        <time>2024-07-18T06:10:37Z</time>
      </trkpt>
      <trkpt lat="44.68605" lon="-1.24039">
        <ele>57.34</ele>
        <time>2024-07-18T06:10:45Z</time>
      </trkpt>
      <trkpt lat="44.68614" lon="-1.24058">
        <ele>56.37</ele>
        <time>2024-07-18T06:10:55Z</time>
      </trkpt>
      <trkpt lat="44.68616" lon="-1.24061">
        <ele>55.41</ele>
        <time>2024-07-18T06:10:57Z</time>
      </trkpt>
      <trkpt lat="44.68618" lon="-1.24072">
        <ele>56.37</ele>
        <time>2024-07-18T06:11:02Z</time>
      </trkpt>
      <trkpt lat="44.68614" lon="-1.24093">
        <ele>55.89</ele>
        <time>2024-07-18T06:11:15Z</time>
      </trkpt>
      <trkpt lat="44.68613" lon="-1.2412">
        <ele>54.45</ele>
        <time>2024-07-18T06:11:27Z</time>
      </trkpt>
      <trkpt lat="44.68614" lon="-1.24124">
        <ele>55.41</ele>
        <time>2024-07-18T06:11:29Z</time>
      </trkpt>
      <trkpt lat="44.68615" lon="-1.2414">
        <ele>54.45</ele>
        <time>2024-07-18T06:11:36Z</time>
      </trkpt>
      <trkpt lat="44.68615" lon="-1.24157">
        <ele>52.53</ele>
        <time>2024-07-18T06:11:45Z</time>
      </trkpt>
      <trkpt lat="44.68613" lon="-1.24187">
        <ele>53.49</ele>
        <time>2024-07-18T06:11:57Z</time>
      </trkpt>
      <trkpt lat="44.68612" lon="-1.24207">
        <ele>51.57</ele>
        <time>2024-07-18T06:12:06Z</time>
      </trkpt>
      <trkpt lat="44.68612" lon="-1.24227">
        <ele>52.53</ele>
        <time>2024-07-18T06:12:17Z</time>
      </trkpt>
      <trkpt lat="44.68608" lon="-1.24247">
        <ele>52.53</ele>
        <time>2024-07-18T06:12:27Z</time>
      </trkpt>
      <trkpt lat="44.68602" lon="-1.24265">
        <ele>51.57</ele>
        <time>2024-07-18T06:12:36Z</time>
      </trkpt>
      <trkpt lat="44.68604" lon="-1.24287">
        <ele>51.57</ele>
        <time>2024-07-18T06:12:48Z</time>
      </trkpt>
      <trkpt lat="44.68609" lon="-1.24305">
        <ele>50.61</ele>
        <time>2024-07-18T06:12:58Z</time>
      </trkpt>
      <trkpt lat="44.68613" lon="-1.24317">
        <ele>51.57</ele>
        <time>2024-07-18T06:13:07Z</time>
      </trkpt>
      <trkpt lat="44.68629" lon="-1.24336">
        <ele>50.61</ele>
        <time>2024-07-18T06:13:20Z</time>
      </trkpt>
      <trkpt lat="44.68632" lon="-1.24339">
        <ele>51.57</ele>
        <time>2024-07-18T06:13:22Z</time>
      </trkpt>
      <trkpt lat="44.68644" lon="-1.24355">
        <ele>51.09</ele>
        <time>2024-07-18T06:13:32Z</time>
      </trkpt>
      <trkpt lat="44.6866" lon="-1.24372">
        <ele>50.13</ele>
        <time>2024-07-18T06:13:45Z</time>
      </trkpt>
      <trkpt lat="44.68667" lon="-1.24395">
        <ele>50.61</ele>
        <time>2024-07-18T06:13:58Z</time>
      </trkpt>
      <trkpt lat="44.68671" lon="-1.24409">
        <ele>50.13</ele>
        <time>2024-07-18T06:14:07Z</time>
      </trkpt>
      <trkpt lat="44.68676" lon="-1.24423">
        <ele>48.68</ele>
        <time>2024-07-18T06:14:19Z</time>
      </trkpt>
      <trkpt lat="44.68677" lon="-1.24445">
        <ele>49.65</ele>
        <time>2024-07-18T06:14:31Z</time>
      </trkpt>
      <trkpt lat="44.68685" lon="-1.24475">
        <ele>49.16</ele>
        <time>2024-07-18T06:14:41Z</time>
      </trkpt>
      <trkpt lat="44.68684" lon="-1.24482">
        <ele>48.2</ele>
        <time>2024-07-18T06:14:45Z</time>
      </trkpt>
      <trkpt lat="44.68674" lon="-1.24498">
        <ele>48.2</ele>
        <time>2024-07-18T06:14:58Z</time>
      </trkpt>
      <trkpt lat="44.68671" lon="-1.24505">
        <ele>48.68</ele>
        <time>2024-07-18T06:15:09Z</time>
      </trkpt>
      <trkpt lat="44.68672" lon="-1.24516">
        <ele>46.76</ele>
        <time>2024-07-18T06:15:20Z</time>
      </trkpt>
      <trkpt lat="44.68669" lon="-1.24525">
        <ele>47.24</ele>
        <time>2024-07-18T06:15:30Z</time>
      </trkpt>
      <trkpt lat="44.68668" lon="-1.24535">
        <ele>46.76</ele>
        <time>2024-07-18T06:15:40Z</time>
      </trkpt>
      <trkpt lat="44.68666" lon="-1.24547">
        <ele>46.28</ele>
        <time>2024-07-18T06:15:54Z</time>
      </trkpt>
      <trkpt lat="44.68667" lon="-1.24555">
        <ele>46.28</ele>
        <time>2024-07-18T06:16:04Z</time>
      </trkpt>
      <trkpt lat="44.68661" lon="-1.24568">
        <ele>44.36</ele>
        <time>2024-07-18T06:16:15Z</time>
      </trkpt>
      <trkpt lat="44.68643" lon="-1.24596">
        <ele>44.84</ele>
        <time>2024-07-18T06:16:29Z</time>
      </trkpt>
      <trkpt lat="44.68633" lon="-1.24615">
        <ele>44.84</ele>
        <time>2024-07-18T06:16:40Z</time>
      </trkpt>
      <trkpt lat="44.68629" lon="-1.24632">
        <ele>45.32</ele>
        <time>2024-07-18T06:16:50Z</time>
      </trkpt>
      <trkpt lat="44.68628" lon="-1.24647">
        <ele>45.32</ele>
        <time>2024-07-18T06:17:02Z</time>
      </trkpt>
      <trkpt lat="44.6863" lon="-1.24657">
        <ele>44.84</ele>
        <time>2024-07-18T06:17:12Z</time>
      </trkpt>
      <trkpt lat="44.68628" lon="-1.2466">
        <ele>45.8</ele>
        <time>2024-07-18T06:17:14Z</time>
      </trkpt>
      <trkpt lat="44.68625" lon="-1.24668">
        <ele>45.32</ele>
        <time>2024-07-18T06:17:20Z</time>
      </trkpt>
      <trkpt lat="44.68616" lon="-1.24688">
        <ele>44.84</ele>
        <time>2024-07-18T06:17:35Z</time>
      </trkpt>
      <trkpt lat="44.6861" lon="-1.24696">
        <ele>42.92</ele>
        <time>2024-07-18T06:17:45Z</time>
      </trkpt>
      <trkpt lat="44.6861" lon="-1.247">
        <ele>46.28</ele>
        <time>2024-07-18T06:17:49Z</time>
      </trkpt>
      <trkpt lat="44.68617" lon="-1.2471">
        <ele>45.32</ele>
        <time>2024-07-18T06:17:58Z</time>
      </trkpt>
      <trkpt lat="44.68623" lon="-1.24735">
        <ele>44.84</ele>
        <time>2024-07-18T06:18:10Z</time>
      </trkpt>
      <trkpt lat="44.68628" lon="-1.24754">
        <ele>46.28</ele>
        <time>2024-07-18T06:18:20Z</time>
      </trkpt>
      <trkpt lat="44.68628" lon="-1.24775">
        <ele>43.4</ele>
        <time>2024-07-18T06:18:33Z</time>
      </trkpt>
      <trkpt lat="44.68628" lon="-1.24777">
        <ele>44.84</ele>
        <time>2024-07-18T06:18:34Z</time>
      </trkpt>
      <trkpt lat="44.68627" lon="-1.24792">
        <ele>44.36</ele>
        <time>2024-07-18T06:18:40Z</time>
      </trkpt>
      <trkpt lat="44.68625" lon="-1.24811">
        <ele>43.88</ele>
        <time>2024-07-18T06:18:48Z</time>
      </trkpt>
      <trkpt lat="44.68624" lon="-1.24819">
        <ele>45.8</ele>
        <time>2024-07-18T06:18:51Z</time>
      </trkpt>
      <trkpt lat="44.68618" lon="-1.2484">
        <ele>46.28</ele>
        <time>2024-07-18T06:19:01Z</time>
      </trkpt>
      <trkpt lat="44.68614" lon="-1.24854">
        <ele>44.36</ele>
        <time>2024-07-18T06:19:08Z</time>
      </trkpt>
      <trkpt lat="44.68613" lon="-1.24862">
        <ele>47.24</ele>
        <time>2024-07-18T06:19:12Z</time>
      </trkpt>
      <trkpt lat="44.68614" lon="-1.24872">
        <ele>44.84</ele>
        <time>2024-07-18T06:19:17Z</time>
      </trkpt>
      <trkpt lat="44.68613" lon="-1.24913">
        <ele>48.2</ele>
        <time>2024-07-18T06:19:29Z</time>
      </trkpt>
      <trkpt lat="44.68611" lon="-1.24936">
        <ele>46.76</ele>
        <time>2024-07-18T06:19:40Z</time>
      </trkpt>
      <trkpt lat="44.6861" lon="-1.24957">
        <ele>48.68</ele>
        <time>2024-07-18T06:19:51Z</time>
      </trkpt>
      <trkpt lat="44.68613" lon="-1.24969">
        <ele>47.24</ele>
        <time>2024-07-18T06:20:03Z</time>
      </trkpt>
      <trkpt lat="44.68614" lon="-1.2497">
        <ele>48.2</ele>
        <time>2024-07-18T06:20:04Z</time>
      </trkpt>
      <trkpt lat="44.68615" lon="-1.2497">
        <ele>48.68</ele>
        <time>2024-07-18T06:20:06Z</time>
      </trkpt>
      <trkpt lat="44.68618" lon="-1.24978">
        <ele>48.2</ele>
        <time>2024-07-18T06:20:19Z</time>
      </trkpt>
      <trkpt lat="44.68619" lon="-1.2498">
        <ele>47.72</ele>
        <time>2024-07-18T06:20:32Z</time>
      </trkpt>
      <trkpt lat="44.6862" lon="-1.2498">
        <ele>47.24</ele>
        <time>2024-07-18T06:20:49Z</time>
      </trkpt>
      <trkpt lat="44.68622" lon="-1.24978">
        <ele>46.76</ele>
        <time>2024-07-18T06:21:04Z</time>
      </trkpt>
      <trkpt lat="44.68623" lon="-1.24977">
        <ele>46.76</ele>
        <time>2024-07-18T06:21:18Z</time>
      </trkpt>
      <trkpt lat="44.68623" lon="-1.24976">
        <ele>46.28</ele>
        <time>2024-07-18T06:21:34Z</time>
      </trkpt>
      <trkpt lat="44.68624" lon="-1.24976">
        <ele>46.28</ele>
        <time>2024-07-18T06:21:43Z</time>
      </trkpt>
      <trkpt lat="44.68624" lon="-1.24976">
        <ele>44.84</ele>
        <time>2024-07-18T06:21:48Z</time>
      </trkpt>
      <trkpt lat="44.68625" lon="-1.24978">
        <ele>46.28</ele>
        <time>2024-07-18T06:21:51Z</time>
      </trkpt>
      <trkpt lat="44.68626" lon="-1.24988">
        <ele>47.24</ele>
        <time>2024-07-18T06:22:00Z</time>
      </trkpt>
      <trkpt lat="44.68626" lon="-1.24988">
        <ele>47.24</ele>
        <time>2024-07-18T06:22:01Z</time>
      </trkpt>
      <trkpt lat="44.68626" lon="-1.24991">
        <ele>45.32</ele>
        <time>2024-07-18T06:22:04Z</time>
      </trkpt>
      <trkpt lat="44.68625" lon="-1.24995">
        <ele>47.24</ele>
        <time>2024-07-18T06:22:08Z</time>
      </trkpt>
      <trkpt lat="44.68629" lon="-1.2501">
        <ele>47.72</ele>
        <time>2024-07-18T06:22:19Z</time>
      </trkpt>
      <trkpt lat="44.68629" lon="-1.25012">
        <ele>46.28</ele>
        <time>2024-07-18T06:22:21Z</time>
      </trkpt>
      <trkpt lat="44.6863" lon="-1.25019">
        <ele>46.76</ele>
        <time>2024-07-18T06:22:26Z</time>
      </trkpt>
      <trkpt lat="44.6863" lon="-1.25026">
        <ele>46.76</ele>
        <time>2024-07-18T06:22:31Z</time>
      </trkpt>
      <trkpt lat="44.68631" lon="-1.25034">
        <ele>48.68</ele>
        <time>2024-07-18T06:22:37Z</time>
      </trkpt>
      <trkpt lat="44.68632" lon="-1.25047">
        <ele>48.68</ele>
        <time>2024-07-18T06:22:47Z</time>
      </trkpt>
      <trkpt lat="44.68631" lon="-1.25052">
        <ele>46.76</ele>
        <time>2024-07-18T06:22:50Z</time>
      </trkpt>
      <trkpt lat="44.68631" lon="-1.25057">
        <ele>48.68</ele>
        <time>2024-07-18T06:22:53Z</time>
      </trkpt>
      <trkpt lat="44.68631" lon="-1.25063">
        <ele>48.2</ele>
        <time>2024-07-18T06:22:58Z</time>
      </trkpt>
      <trkpt lat="44.68629" lon="-1.25083">
        <ele>48.2</ele>
        <time>2024-07-18T06:23:10Z</time>
      </trkpt>
      <trkpt lat="44.68625" lon="-1.25104">
        <ele>49.16</ele>
        <time>2024-07-18T06:23:22Z</time>
      </trkpt>
      <trkpt lat="44.68623" lon="-1.25119">
        <ele>49.16</ele>
        <time>2024-07-18T06:23:31Z</time>
      </trkpt>
      <trkpt lat="44.6862" lon="-1.25137">
        <ele>48.68</ele>
        <time>2024-07-18T06:23:44Z</time>
      </trkpt>
      <trkpt lat="44.68617" lon="-1.25144">
        <ele>48.68</ele>
        <time>2024-07-18T06:23:49Z</time>
      </trkpt>
      <trkpt lat="44.68614" lon="-1.2515">
        <ele>49.65</ele>
        <time>2024-07-18T06:23:53Z</time>
      </trkpt>
      <trkpt lat="44.68611" lon="-1.25159">
        <ele>49.65</ele>
        <time>2024-07-18T06:23:58Z</time>
      </trkpt>
      <trkpt lat="44.68606" lon="-1.25178">
        <ele>48.68</ele>
        <time>2024-07-18T06:24:09Z</time>
      </trkpt>
      <trkpt lat="44.68603" lon="-1.25195">
        <ele>46.76</ele>
        <time>2024-07-18T06:24:20Z</time>
      </trkpt>
      <trkpt lat="44.686" lon="-1.25204">
        <ele>46.76</ele>
        <time>2024-07-18T06:24:26Z</time>
      </trkpt>
      <trkpt lat="44.68599" lon="-1.25212">
        <ele>48.68</ele>
        <time>2024-07-18T06:24:31Z</time>
      </trkpt>
      <trkpt lat="44.686" lon="-1.2522">
        <ele>48.68</ele>
        <time>2024-07-18T06:24:39Z</time>
      </trkpt>
      <trkpt lat="44.686" lon="-1.25226">
        <ele>48.68</ele>
        <time>2024-07-18T06:24:44Z</time>
      </trkpt>
      <trkpt lat="44.686" lon="-1.2523">
        <ele>47.24</ele>
        <time>2024-07-18T06:24:47Z</time>
      </trkpt>
      <trkpt lat="44.68598" lon="-1.25241">
        <ele>49.16</ele>
        <time>2024-07-18T06:24:55Z</time>
      </trkpt>
      <trkpt lat="44.68598" lon="-1.25245">
        <ele>47.72</ele>
        <time>2024-07-18T06:24:58Z</time>
      </trkpt>
      <trkpt lat="44.68598" lon="-1.25249">
        <ele>49.65</ele>
        <time>2024-07-18T06:25:02Z</time>
      </trkpt>
      <trkpt lat="44.68598" lon="-1.25263">
        <ele>50.13</ele>
        <time>2024-07-18T06:25:13Z</time>
      </trkpt>
      <trkpt lat="44.68598" lon="-1.25276">
        <ele>48.68</ele>
        <time>2024-07-18T06:25:23Z</time>
      </trkpt>
      <trkpt lat="44.68598" lon="-1.25279">
        <ele>51.09</ele>
        <time>2024-07-18T06:25:25Z</time>
      </trkpt>
      <trkpt lat="44.68598" lon="-1.25283">
        <ele>51.57</ele>
        <time>2024-07-18T06:25:29Z</time>
      </trkpt>
      <trkpt lat="44.68596" lon="-1.25299">
        <ele>50.13</ele>
        <time>2024-07-18T06:25:40Z</time>
      </trkpt>
      <trkpt lat="44.68596" lon="-1.25303">
        <ele>52.53</ele>
        <time>2024-07-18T06:25:44Z</time>
      </trkpt>
      <trkpt lat="44.68593" lon="-1.2532">
        <ele>51.57</ele>
        <time>2024-07-18T06:25:55Z</time>
      </trkpt>
      <trkpt lat="44.68595" lon="-1.25335">
        <ele>52.05</ele>
        <time>2024-07-18T06:26:06Z</time>
      </trkpt>
      <trkpt lat="44.68596" lon="-1.2534">
        <ele>53.97</ele>
        <time>2024-07-18T06:26:10Z</time>
      </trkpt>
      <trkpt lat="44.68599" lon="-1.25352">
        <ele>54.93</ele>
        <time>2024-07-18T06:26:20Z</time>
      </trkpt>
      <trkpt lat="44.686" lon="-1.25355">
        <ele>54.45</ele>
        <time>2024-07-18T06:26:23Z</time>
      </trkpt>
      <trkpt lat="44.68605" lon="-1.25367">
        <ele>56.37</ele>
        <time>2024-07-18T06:26:31Z</time>
      </trkpt>
      <trkpt lat="44.68606" lon="-1.25369">
        <ele>54.93</ele>
        <time>2024-07-18T06:26:34Z</time>
      </trkpt>
      <trkpt lat="44.68608" lon="-1.25379">
        <ele>54.93</ele>
        <time>2024-07-18T06:26:44Z</time>
      </trkpt>
      <trkpt lat="44.68611" lon="-1.25388">
        <ele>56.86</ele>
        <time>2024-07-18T06:26:54Z</time>
      </trkpt>
      <trkpt lat="44.68612" lon="-1.25391">
        <ele>57.82</ele>
        <time>2024-07-18T06:26:57Z</time>
      </trkpt>
      <trkpt lat="44.68615" lon="-1.25398">
        <ele>58.78</ele>
        <time>2024-07-18T06:27:06Z</time>
      </trkpt>
      <trkpt lat="44.68616" lon="-1.2541">
        <ele>56.86</ele>
        <time>2024-07-18T06:27:17Z</time>
      </trkpt>
      <trkpt lat="44.68618" lon="-1.25423">
        <ele>57.34</ele>
        <time>2024-07-18T06:27:28Z</time>
      </trkpt>
      <trkpt lat="44.68617" lon="-1.25428">
        <ele>56.86</ele>
        <time>2024-07-18T06:27:38Z</time>
      </trkpt>
      <trkpt lat="44.68618" lon="-1.25427">
        <ele>56.86</ele>
        <time>2024-07-18T06:27:50Z</time>
      </trkpt>
      <trkpt lat="44.68619" lon="-1.25427">
        <ele>56.86</ele>
        <time>2024-07-18T06:28:05Z</time>
      </trkpt>
      <trkpt lat="44.68618" lon="-1.25427">
        <ele>56.86</ele>
        <time>2024-07-18T06:28:18Z</time>
      </trkpt>
      <trkpt lat="44.68619" lon="-1.25426">
        <ele>56.86</ele>
        <time>2024-07-18T06:28:32Z</time>
      </trkpt>
      <trkpt lat="44.68621" lon="-1.25426">
        <ele>55.89</ele>
        <time>2024-07-18T06:28:47Z</time>
      </trkpt>
      <trkpt lat="44.68621" lon="-1.25426">
        <ele>54.45</ele>
        <time>2024-07-18T06:28:58Z</time>
      </trkpt>
      <trkpt lat="44.68622" lon="-1.25427">
        <ele>52.53</ele>
        <time>2024-07-18T06:29:09Z</time>
      </trkpt>
      <trkpt lat="44.68624" lon="-1.25429">
        <ele>50.61</ele>
        <time>2024-07-18T06:29:20Z</time>
      </trkpt>
      <trkpt lat="44.68625" lon="-1.25431">
        <ele>47.24</ele>
        <time>2024-07-18T06:29:31Z</time>
      </trkpt>
      <trkpt lat="44.68624" lon="-1.25444">
        <ele>47.24</ele>
        <time>2024-07-18T06:29:41Z</time>
      </trkpt>
      <trkpt lat="44.68624" lon="-1.25446">
        <ele>45.8</ele>
        <time>2024-07-18T06:29:43Z</time>
      </trkpt>
      <trkpt lat="44.68622" lon="-1.25465">
        <ele>44.36</ele>
        <time>2024-07-18T06:29:54Z</time>
      </trkpt>
      <trkpt lat="44.68621" lon="-1.25483">
        <ele>41.95</ele>
        <time>2024-07-18T06:30:04Z</time>
      </trkpt>
      <trkpt lat="44.68621" lon="-1.25487">
        <ele>40.99</ele>
        <time>2024-07-18T06:30:06Z</time>
      </trkpt>
      <trkpt lat="44.68622" lon="-1.25499">
        <ele>39.55</ele>
        <time>2024-07-18T06:30:14Z</time>
      </trkpt>
      <trkpt lat="44.68624" lon="-1.25518">
        <ele>38.11</ele>
        <time>2024-07-18T06:30:25Z</time>
      </trkpt>
      <trkpt lat="44.68623" lon="-1.25533">
        <ele>37.15</ele>
        <time>2024-07-18T06:30:35Z</time>
      </trkpt>
      <trkpt lat="44.68624" lon="-1.2555">
        <ele>35.71</ele>
        <time>2024-07-18T06:30:48Z</time>
      </trkpt>
      <trkpt lat="44.68626" lon="-1.2556">
        <ele>35.71</ele>
        <time>2024-07-18T06:30:57Z</time>
      </trkpt>
      <trkpt lat="44.68624" lon="-1.25568">
        <ele>36.19</ele>
        <time>2024-07-18T06:31:05Z</time>
      </trkpt>
      <trkpt lat="44.68624" lon="-1.25576">
        <ele>36.19</ele>
        <time>2024-07-18T06:31:16Z</time>
      </trkpt>
      <trkpt lat="44.68629" lon="-1.25591">
        <ele>36.67</ele>
        <time>2024-07-18T06:31:29Z</time>
      </trkpt>
      <trkpt lat="44.68632" lon="-1.25593">
        <ele>37.15</ele>
        <time>2024-07-18T06:31:34Z</time>
      </trkpt>
      <trkpt lat="44.68638" lon="-1.25598">
        <ele>37.15</ele>
        <time>2024-07-18T06:31:46Z</time>
      </trkpt>
      <trkpt lat="44.68638" lon="-1.25606">
        <ele>35.23</ele>
        <time>2024-07-18T06:31:56Z</time>
      </trkpt>
      <trkpt lat="44.68638" lon="-1.25607">
        <ele>35.71</ele>
        <time>2024-07-18T06:31:57Z</time>
      </trkpt>
      <trkpt lat="44.68634" lon="-1.25617">
        <ele>33.78</ele>
        <time>2024-07-18T06:32:06Z</time>
      </trkpt>
      <trkpt lat="44.68626" lon="-1.2563">
        <ele>33.3</ele>
        <time>2024-07-18T06:32:17Z</time>
      </trkpt>
      <trkpt lat="44.68613" lon="-1.25639">
        <ele>32.34</ele>
        <time>2024-07-18T06:32:29Z</time>
      </trkpt>
      <trkpt lat="44.68601" lon="-1.25644">
        <ele>31.38</ele>
        <time>2024-07-18T06:32:40Z</time>
      </trkpt>
      <trkpt lat="44.68591" lon="-1.25649">
        <ele>33.78</ele>
        <time>2024-07-18T06:32:49Z</time>
      </trkpt>
      <trkpt lat="44.68585" lon="-1.25653">
        <ele>32.34</ele>
        <time>2024-07-18T06:32:54Z</time>
      </trkpt>
      <trkpt lat="44.68569" lon="-1.25659">
        <ele>33.3</ele>
        <time>2024-07-18T06:33:07Z</time>
      </trkpt>
      <trkpt lat="44.68555" lon="-1.25668">
        <ele>32.82</ele>
        <time>2024-07-18T06:33:19Z</time>
      </trkpt>
      <trkpt lat="44.68544" lon="-1.25674">
        <ele>31.86</ele>
        <time>2024-07-18T06:33:29Z</time>
      </trkpt>
      <trkpt lat="44.68543" lon="-1.25675">
        <ele>31.38</ele>
        <time>2024-07-18T06:33:30Z</time>
      </trkpt>
      <trkpt lat="44.68528" lon="-1.25678">
        <ele>32.82</ele>
        <time>2024-07-18T06:33:42Z</time>
      </trkpt>
      <trkpt lat="44.68524" lon="-1.25679">
        <ele>31.38</ele>
        <time>2024-07-18T06:33:45Z</time>
      </trkpt>
      <trkpt lat="44.6852" lon="-1.2568">
        <ele>32.34</ele>
        <time>2024-07-18T06:33:48Z</time>
      </trkpt>
      <trkpt lat="44.68508" lon="-1.2568">
        <ele>33.3</ele>
        <time>2024-07-18T06:33:57Z</time>
      </trkpt>
      <trkpt lat="44.68505" lon="-1.25681">
        <ele>31.38</ele>
        <time>2024-07-18T06:34:00Z</time>
      </trkpt>
      <trkpt lat="44.68488" lon="-1.25682">
        <ele>32.34</ele>
        <time>2024-07-18T06:34:12Z</time>
      </trkpt>
      <trkpt lat="44.68482" lon="-1.2568">
        <ele>32.34</ele>
        <time>2024-07-18T06:34:17Z</time>
      </trkpt>
      <trkpt lat="44.68479" lon="-1.25678">
        <ele>30.42</ele>
        <time>2024-07-18T06:34:21Z</time>
      </trkpt>
      <trkpt lat="44.68476" lon="-1.25675">
        <ele>31.86</ele>
        <time>2024-07-18T06:34:24Z</time>
      </trkpt>
      <trkpt lat="44.68464" lon="-1.25659">
        <ele>32.34</ele>
        <time>2024-07-18T06:34:34Z</time>
      </trkpt>
      <trkpt lat="44.68459" lon="-1.25653">
        <ele>30.9</ele>
        <time>2024-07-18T06:34:39Z</time>
      </trkpt>
      <trkpt lat="44.68447" lon="-1.25642">
        <ele>30.42</ele>
        <time>2024-07-18T06:34:49Z</time>
      </trkpt>
      <trkpt lat="44.68442" lon="-1.25641">
        <ele>31.86</ele>
        <time>2024-07-18T06:34:53Z</time>
      </trkpt>
      <trkpt lat="44.68429" lon="-1.25639">
        <ele>31.86</ele>
        <time>2024-07-18T06:35:04Z</time>
      </trkpt>
      <trkpt lat="44.68414" lon="-1.25639">
        <ele>29.94</ele>
        <time>2024-07-18T06:35:15Z</time>
      </trkpt>
      <trkpt lat="44.68409" lon="-1.25639">
        <ele>31.86</ele>
        <time>2024-07-18T06:35:18Z</time>
      </trkpt>
      <trkpt lat="44.68396" lon="-1.25641">
        <ele>30.9</ele>
        <time>2024-07-18T06:35:28Z</time>
      </trkpt>
      <trkpt lat="44.68384" lon="-1.25639">
        <ele>31.38</ele>
        <time>2024-07-18T06:35:36Z</time>
      </trkpt>
      <trkpt lat="44.68365" lon="-1.25633">
        <ele>31.38</ele>
        <time>2024-07-18T06:35:49Z</time>
      </trkpt>
      <trkpt lat="44.68349" lon="-1.25632">
        <ele>29.46</ele>
        <time>2024-07-18T06:36:00Z</time>
      </trkpt>
      <trkpt lat="44.68334" lon="-1.25629">
        <ele>30.42</ele>
        <time>2024-07-18T06:36:11Z</time>
      </trkpt>
      <trkpt lat="44.68321" lon="-1.25626">
        <ele>29.94</ele>
        <time>2024-07-18T06:36:20Z</time>
      </trkpt>
      <trkpt lat="44.68307" lon="-1.25627">
        <ele>29.46</ele>
        <time>2024-07-18T06:36:30Z</time>
      </trkpt>
      <trkpt lat="44.68294" lon="-1.25624">
        <ele>29.94</ele>
        <time>2024-07-18T06:36:40Z</time>
      </trkpt>
      <trkpt lat="44.68284" lon="-1.25624">
        <ele>29.94</ele>
        <time>2024-07-18T06:36:48Z</time>
      </trkpt>
      <trkpt lat="44.68269" lon="-1.25624">
        <ele>28.98</ele>
        <time>2024-07-18T06:36:57Z</time>
      </trkpt>
      <trkpt lat="44.68252" lon="-1.25624">
        <ele>29.94</ele>
        <time>2024-07-18T06:37:09Z</time>
      </trkpt>
      <trkpt lat="44.68242" lon="-1.25629">
        <ele>27.53</ele>
        <time>2024-07-18T06:37:17Z</time>
      </trkpt>
      <trkpt lat="44.68236" lon="-1.25632">
        <ele>28.98</ele>
        <time>2024-07-18T06:37:22Z</time>
      </trkpt>
      <trkpt lat="44.6822" lon="-1.25639">
        <ele>29.46</ele>
        <time>2024-07-18T06:37:33Z</time>
      </trkpt>
      <trkpt lat="44.68205" lon="-1.25644">
        <ele>28.98</ele>
        <time>2024-07-18T06:37:43Z</time>
      </trkpt>
      <trkpt lat="44.6819" lon="-1.25648">
        <ele>27.53</ele>
        <time>2024-07-18T06:37:53Z</time>
      </trkpt>
      <trkpt lat="44.68181" lon="-1.25654">
        <ele>28.02</ele>
        <time>2024-07-18T06:37:59Z</time>
      </trkpt>
      <trkpt lat="44.68162" lon="-1.25661">
        <ele>28.98</ele>
        <time>2024-07-18T06:38:11Z</time>
      </trkpt>
      <trkpt lat="44.68149" lon="-1.25665">
        <ele>27.05</ele>
        <time>2024-07-18T06:38:21Z</time>
      </trkpt>
      <trkpt lat="44.68133" lon="-1.25674">
        <ele>28.5</ele>
        <time>2024-07-18T06:38:33Z</time>
      </trkpt>
      <trkpt lat="44.68122" lon="-1.25675">
        <ele>28.5</ele>
        <time>2024-07-18T06:38:40Z</time>
      </trkpt>
      <trkpt lat="44.68114" lon="-1.25674">
        <ele>27.53</ele>
        <time>2024-07-18T06:38:46Z</time>
      </trkpt>
      <trkpt lat="44.68109" lon="-1.25674">
        <ele>28.5</ele>
        <time>2024-07-18T06:38:51Z</time>
      </trkpt>
      <trkpt lat="44.68095" lon="-1.25676">
        <ele>28.98</ele>
        <time>2024-07-18T06:39:01Z</time>
      </trkpt>
      <trkpt lat="44.68082" lon="-1.25678">
        <ele>28.5</ele>
        <time>2024-07-18T06:39:09Z</time>
      </trkpt>
      <trkpt lat="44.68069" lon="-1.25676">
        <ele>28.02</ele>
        <time>2024-07-18T06:39:18Z</time>
      </trkpt>
      <trkpt lat="44.68059" lon="-1.25678">
        <ele>27.53</ele>
        <time>2024-07-18T06:39:27Z</time>
      </trkpt>
      <trkpt lat="44.68043" lon="-1.25682">
        <ele>28.5</ele>
        <time>2024-07-18T06:39:37Z</time>
      </trkpt>
      <trkpt lat="44.68028" lon="-1.25681">
        <ele>27.05</ele>
        <time>2024-07-18T06:39:47Z</time>
      </trkpt>
      <trkpt lat="44.68014" lon="-1.25687">
        <ele>27.05</ele>
        <time>2024-07-18T06:39:57Z</time>
      </trkpt>
      <trkpt lat="44.67998" lon="-1.25692">
        <ele>28.02</ele>
        <time>2024-07-18T06:40:09Z</time>
      </trkpt>
      <trkpt lat="44.67986" lon="-1.25697">
        <ele>27.05</ele>
        <time>2024-07-18T06:40:18Z</time>
      </trkpt>
      <trkpt lat="44.67969" lon="-1.25699">
        <ele>28.02</ele>
        <time>2024-07-18T06:40:30Z</time>
      </trkpt>
      <trkpt lat="44.67961" lon="-1.25701">
        <ele>26.57</ele>
        <time>2024-07-18T06:40:36Z</time>
      </trkpt>
      <trkpt lat="44.67957" lon="-1.25702">
        <ele>28.5</ele>
        <time>2024-07-18T06:40:39Z</time>
      </trkpt>
      <trkpt lat="44.67954" lon="-1.25703">
        <ele>27.05</ele>
        <time>2024-07-18T06:40:42Z</time>
      </trkpt>
      <trkpt lat="44.67947" lon="-1.25703">
        <ele>27.53</ele>
        <time>2024-07-18T06:40:47Z</time>
      </trkpt>
      <trkpt lat="44.67939" lon="-1.25704">
        <ele>27.53</ele>
        <time>2024-07-18T06:40:53Z</time>
      </trkpt>
      <trkpt lat="44.67927" lon="-1.25701">
        <ele>28.02</ele>
        <time>2024-07-18T06:41:02Z</time>
      </trkpt>
      <trkpt lat="44.67914" lon="-1.25702">
        <ele>27.53</ele>
        <time>2024-07-18T06:41:10Z</time>
      </trkpt>
      <trkpt lat="44.67898" lon="-1.25704">
        <ele>26.57</ele>
        <time>2024-07-18T06:41:22Z</time>
      </trkpt>
      <trkpt lat="44.67892" lon="-1.25703">
        <ele>28.02</ele>
        <time>2024-07-18T06:41:28Z</time>
      </trkpt>
      <trkpt lat="44.67881" lon="-1.25703">
        <ele>27.53</ele>
        <time>2024-07-18T06:41:39Z</time>
      </trkpt>
      <trkpt lat="44.67873" lon="-1.25706">
        <ele>26.57</ele>
        <time>2024-07-18T06:41:48Z</time>
      </trkpt>
      <trkpt lat="44.67866" lon="-1.25707">
        <ele>25.61</ele>
        <time>2024-07-18T06:41:54Z</time>
      </trkpt>
      <trkpt lat="44.67843" lon="-1.257">
        <ele>27.53</ele>
        <time>2024-07-18T06:42:08Z</time>
      </trkpt>
      <trkpt lat="44.67823" lon="-1.25696">
        <ele>27.53</ele>
        <time>2024-07-18T06:42:20Z</time>
      </trkpt>
      <trkpt lat="44.67808" lon="-1.25699">
        <ele>27.05</ele>
        <time>2024-07-18T06:42:30Z</time>
      </trkpt>
      <trkpt lat="44.6779" lon="-1.25704">
        <ele>25.61</ele>
        <time>2024-07-18T06:42:43Z</time>
      </trkpt>
      <trkpt lat="44.67784" lon="-1.25704">
        <ele>27.05</ele>
        <time>2024-07-18T06:42:47Z</time>
      </trkpt>
      <trkpt lat="44.6777" lon="-1.25705">
        <ele>27.05</ele>
        <time>2024-07-18T06:42:58Z</time>
      </trkpt>
      <trkpt lat="44.67751" lon="-1.25709">
        <ele>26.09</ele>
        <time>2024-07-18T06:43:11Z</time>
      </trkpt>
      <trkpt lat="44.67743" lon="-1.25713">
        <ele>26.57</ele>
        <time>2024-07-18T06:43:17Z</time>
      </trkpt>
      <trkpt lat="44.67726" lon="-1.25717">
        <ele>25.13</ele>
        <time>2024-07-18T06:43:29Z</time>
      </trkpt>
      <trkpt lat="44.67713" lon="-1.25722">
        <ele>26.09</ele>
        <time>2024-07-18T06:43:38Z</time>
      </trkpt>
      <trkpt lat="44.67701" lon="-1.25724">
        <ele>26.57</ele>
        <time>2024-07-18T06:43:46Z</time>
      </trkpt>
      <trkpt lat="44.67685" lon="-1.25733">
        <ele>26.09</ele>
        <time>2024-07-18T06:43:58Z</time>
      </trkpt>
      <trkpt lat="44.67668" lon="-1.2574">
        <ele>26.57</ele>
        <time>2024-07-18T06:44:09Z</time>
      </trkpt>
      <trkpt lat="44.67656" lon="-1.25747">
        <ele>25.61</ele>
        <time>2024-07-18T06:44:20Z</time>
      </trkpt>
      <trkpt lat="44.67654" lon="-1.25749">
        <ele>24.65</ele>
        <time>2024-07-18T06:44:22Z</time>
      </trkpt>
      <trkpt lat="44.6765" lon="-1.25751">
        <ele>24.65</ele>
        <time>2024-07-18T06:44:25Z</time>
      </trkpt>
      <trkpt lat="44.67644" lon="-1.25753">
        <ele>25.61</ele>
        <time>2024-07-18T06:44:29Z</time>
      </trkpt>
      <trkpt lat="44.67635" lon="-1.25757">
        <ele>25.61</ele>
        <time>2024-07-18T06:44:36Z</time>
      </trkpt>
      <trkpt lat="44.67631" lon="-1.25759">
        <ele>26.09</ele>
        <time>2024-07-18T06:44:39Z</time>
      </trkpt>
      <trkpt lat="44.67617" lon="-1.25762">
        <ele>26.09</ele>
        <time>2024-07-18T06:44:48Z</time>
      </trkpt>
      <trkpt lat="44.67609" lon="-1.25763">
        <ele>24.65</ele>
        <time>2024-07-18T06:44:53Z</time>
      </trkpt>
      <trkpt lat="44.67599" lon="-1.25767">
        <ele>24.17</ele>
        <time>2024-07-18T06:45:03Z</time>
      </trkpt>
      <trkpt lat="44.67597" lon="-1.25769">
        <ele>25.13</ele>
        <time>2024-07-18T06:45:09Z</time>
      </trkpt>
      <trkpt lat="44.67598" lon="-1.25768">
        <ele>26.57</ele>
        <time>2024-07-18T06:45:14Z</time>
      </trkpt>
      <trkpt lat="44.67598" lon="-1.25768">
        <ele>24.65</ele>
        <time>2024-07-18T06:45:16Z</time>
      </trkpt>
      <trkpt lat="44.67598" lon="-1.25765">
        <ele>25.13</ele>
        <time>2024-07-18T06:45:28Z</time>
      </trkpt>
      <trkpt lat="44.67598" lon="-1.25764">
        <ele>25.13</ele>
        <time>2024-07-18T06:45:38Z</time>
      </trkpt>
      <trkpt lat="44.67598" lon="-1.25762">
        <ele>25.61</ele>
        <time>2024-07-18T06:45:51Z</time>
      </trkpt>
      <trkpt lat="44.67598" lon="-1.25762">
        <ele>25.13</ele>
        <time>2024-07-18T06:46:05Z</time>
      </trkpt>
      <trkpt lat="44.67598" lon="-1.25761">
        <ele>24.65</ele>
        <time>2024-07-18T06:46:19Z</time>
      </trkpt>
      <trkpt lat="44.67598" lon="-1.2576">
        <ele>25.13</ele>
        <time>2024-07-18T06:46:35Z</time>
      </trkpt>
      <trkpt lat="44.67598" lon="-1.2576">
        <ele>25.13</ele>
        <time>2024-07-18T06:46:50Z</time>
      </trkpt>
      <trkpt lat="44.67598" lon="-1.25759">
        <ele>24.17</ele>
        <time>2024-07-18T06:47:03Z</time>
      </trkpt>
      <trkpt lat="44.67598" lon="-1.25759">
        <ele>24.17</ele>
        <time>2024-07-18T06:47:19Z</time>
      </trkpt>
      <trkpt lat="44.67598" lon="-1.25759">
        <ele>23.69</ele>
        <time>2024-07-18T06:47:32Z</time>
      </trkpt>
      <trkpt lat="44.67597" lon="-1.25758">
        <ele>24.17</ele>
        <time>2024-07-18T06:47:45Z</time>
      </trkpt>
      <trkpt lat="44.67597" lon="-1.25758">
        <ele>23.69</ele>
        <time>2024-07-18T06:47:56Z</time>
      </trkpt>
      <trkpt lat="44.67597" lon="-1.25758">
        <ele>23.21</ele>
        <time>2024-07-18T06:48:09Z</time>
      </trkpt>
      <trkpt lat="44.67597" lon="-1.25757">
        <ele>24.17</ele>
        <time>2024-07-18T06:48:25Z</time>
      </trkpt>
      <trkpt lat="44.67597" lon="-1.25757">
        <ele>23.69</ele>
        <time>2024-07-18T06:48:38Z</time>
      </trkpt>
      <trkpt lat="44.67597" lon="-1.25757">
        <ele>23.21</ele>
        <time>2024-07-18T06:48:50Z</time>
      </trkpt>
      <trkpt lat="44.67597" lon="-1.25757">
        <ele>22.73</ele>
        <time>2024-07-18T06:49:07Z</time>
      </trkpt>
      <trkpt lat="44.67597" lon="-1.25757">
        <ele>23.21</ele>
        <time>2024-07-18T06:49:23Z</time>
      </trkpt>
      <trkpt lat="44.67597" lon="-1.25757">
        <ele>22.73</ele>
        <time>2024-07-18T06:49:38Z</time>
      </trkpt>
      <trkpt lat="44.67597" lon="-1.25757">
        <ele>23.21</ele>
        <time>2024-07-18T06:49:52Z</time>
      </trkpt>
      <trkpt lat="44.67597" lon="-1.25757">
        <ele>22.73</ele>
        <time>2024-07-18T06:50:05Z</time>
      </trkpt>
      <trkpt lat="44.67597" lon="-1.25757">
        <ele>22.73</ele>
        <time>2024-07-18T06:50:19Z</time>
      </trkpt>
      <trkpt lat="44.67597" lon="-1.25757">
        <ele>22.25</ele>
        <time>2024-07-18T06:50:33Z</time>
      </trkpt>
      <trkpt lat="44.67597" lon="-1.25757">
        <ele>22.73</ele>
        <time>2024-07-18T06:50:45Z</time>
      </trkpt>
      <trkpt lat="44.67597" lon="-1.25757">
        <ele>22.25</ele>
        <time>2024-07-18T06:50:53Z</time>
      </trkpt>
      <trkpt lat="44.67597" lon="-1.25758">
        <ele>22.25</ele>
        <time>2024-07-18T06:51:09Z</time>
      </trkpt>
      <trkpt lat="44.67597" lon="-1.25758">
        <ele>21.29</ele>
        <time>2024-07-18T06:51:23Z</time>
      </trkpt>
      <trkpt lat="44.67597" lon="-1.25758">
        <ele>21.77</ele>
        <time>2024-07-18T06:51:35Z</time>
      </trkpt>
      <trkpt lat="44.67597" lon="-1.25758">
        <ele>21.29</ele>
        <time>2024-07-18T06:51:51Z</time>
      </trkpt>
      <trkpt lat="44.67597" lon="-1.25758">
        <ele>21.29</ele>
        <time>2024-07-18T06:52:05Z</time>
      </trkpt>
      <trkpt lat="44.67597" lon="-1.25758">
        <ele>21.77</ele>
        <time>2024-07-18T06:52:17Z</time>
      </trkpt>
      <trkpt lat="44.67598" lon="-1.25757">
        <ele>21.29</ele>
        <time>2024-07-18T06:52:34Z</time>
      </trkpt>
      <trkpt lat="44.67598" lon="-1.25757">
        <ele>20.81</ele>
        <time>2024-07-18T06:52:52Z</time>
      </trkpt>
      <trkpt lat="44.67598" lon="-1.25757">
        <ele>20.81</ele>
        <time>2024-07-18T06:53:05Z</time>
      </trkpt>
      <trkpt lat="44.67596" lon="-1.25751">
        <ele>20.81</ele>
        <time>2024-07-18T06:53:15Z</time>
      </trkpt>
      <trkpt lat="44.67595" lon="-1.25747">
        <ele>22.25</ele>
        <time>2024-07-18T06:53:18Z</time>
      </trkpt>
      <trkpt lat="44.67593" lon="-1.25736">
        <ele>22.73</ele>
        <time>2024-07-18T06:53:27Z</time>
      </trkpt>
      <trkpt lat="44.67593" lon="-1.25731">
        <ele>23.21</ele>
        <time>2024-07-18T06:53:32Z</time>
      </trkpt>
      <trkpt lat="44.67593" lon="-1.25731">
        <ele>22.25</ele>
        <time>2024-07-18T06:53:33Z</time>
      </trkpt>
      <trkpt lat="44.67592" lon="-1.25718">
        <ele>23.21</ele>
        <time>2024-07-18T06:53:44Z</time>
      </trkpt>
      <trkpt lat="44.67591" lon="-1.25711">
        <ele>21.77</ele>
        <time>2024-07-18T06:53:51Z</time>
      </trkpt>
      <trkpt lat="44.67589" lon="-1.257">
        <ele>22.25</ele>
        <time>2024-07-18T06:54:00Z</time>
      </trkpt>
      <trkpt lat="44.67585" lon="-1.25693">
        <ele>23.21</ele>
        <time>2024-07-18T06:54:07Z</time>
      </trkpt>
      <trkpt lat="44.67583" lon="-1.25679">
        <ele>23.69</ele>
        <time>2024-07-18T06:54:17Z</time>
      </trkpt>
      <trkpt lat="44.67582" lon="-1.2567">
        <ele>23.69</ele>
        <time>2024-07-18T06:54:24Z</time>
      </trkpt>
      <trkpt lat="44.6758" lon="-1.25658">
        <ele>25.13</ele>
        <time>2024-07-18T06:54:35Z</time>
      </trkpt>
      <trkpt lat="44.6758" lon="-1.25654">
        <ele>24.65</ele>
        <time>2024-07-18T06:54:39Z</time>
      </trkpt>
      <trkpt lat="44.67579" lon="-1.25646">
        <ele>27.05</ele>
        <time>2024-07-18T06:54:48Z</time>
      </trkpt>
      <trkpt lat="44.67579" lon="-1.25643">
        <ele>24.17</ele>
        <time>2024-07-18T06:54:51Z</time>
      </trkpt>
      <trkpt lat="44.67578" lon="-1.25642">
        <ele>27.05</ele>
        <time>2024-07-18T06:54:53Z</time>
      </trkpt>
      <trkpt lat="44.67578" lon="-1.25641">
        <ele>23.21</ele>
        <time>2024-07-18T06:54:54Z</time>
      </trkpt>
      <trkpt lat="44.67578" lon="-1.2564">
        <ele>27.05</ele>
        <time>2024-07-18T06:54:55Z</time>
      </trkpt>
      <trkpt lat="44.67576" lon="-1.25634">
        <ele>28.02</ele>
        <time>2024-07-18T06:55:03Z</time>
      </trkpt>
      <trkpt lat="44.67575" lon="-1.25631">
        <ele>28.02</ele>
        <time>2024-07-18T06:55:07Z</time>
      </trkpt>
      <trkpt lat="44.67573" lon="-1.25623">
        <ele>28.98</ele>
        <time>2024-07-18T06:55:17Z</time>
      </trkpt>
      <trkpt lat="44.67572" lon="-1.25621">
        <ele>32.34</ele>
        <time>2024-07-18T06:55:20Z</time>
      </trkpt>
      <trkpt lat="44.67572" lon="-1.2562">
        <ele>26.57</ele>
        <time>2024-07-18T06:55:21Z</time>
      </trkpt>
      <trkpt lat="44.67572" lon="-1.2562">
        <ele>29.94</ele>
        <time>2024-07-18T06:55:22Z</time>
      </trkpt>
      <trkpt lat="44.67571" lon="-1.2561">
        <ele>28.98</ele>
        <time>2024-07-18T06:55:34Z</time>
      </trkpt>
      <trkpt lat="44.67571" lon="-1.2561">
        <ele>32.34</ele>
        <time>2024-07-18T06:55:36Z</time>
      </trkpt>
      <trkpt lat="44.67571" lon="-1.2561">
        <ele>29.46</ele>
        <time>2024-07-18T06:55:38Z</time>
      </trkpt>
      <trkpt lat="44.67571" lon="-1.2561">
        <ele>32.34</ele>
        <time>2024-07-18T06:55:40Z</time>
      </trkpt>
      <trkpt lat="44.67572" lon="-1.2561">
        <ele>32.82</ele>
        <time>2024-07-18T06:55:48Z</time>
      </trkpt>
      <trkpt lat="44.67572" lon="-1.25607">
        <ele>35.71</ele>
        <time>2024-07-18T06:55:57Z</time>
      </trkpt>
      <trkpt lat="44.67572" lon="-1.25606">
        <ele>31.38</ele>
        <time>2024-07-18T06:55:59Z</time>
      </trkpt>
      <trkpt lat="44.67572" lon="-1.25606">
        <ele>35.71</ele>
        <time>2024-07-18T06:56:01Z</time>
      </trkpt>
      <trkpt lat="44.67572" lon="-1.25606">
        <ele>32.34</ele>
        <time>2024-07-18T06:56:02Z</time>
      </trkpt>
      <trkpt lat="44.67572" lon="-1.25604">
        <ele>35.23</ele>
        <time>2024-07-18T06:56:04Z</time>
      </trkpt>
      <trkpt lat="44.67572" lon="-1.25593">
        <ele>36.19</ele>
        <time>2024-07-18T06:56:15Z</time>
      </trkpt>
      <trkpt lat="44.67572" lon="-1.25591">
        <ele>35.23</ele>
        <time>2024-07-18T06:56:17Z</time>
      </trkpt>
      <trkpt lat="44.67573" lon="-1.25588">
        <ele>37.63</ele>
        <time>2024-07-18T06:56:26Z</time>
      </trkpt>
      <trkpt lat="44.67573" lon="-1.2558">
        <ele>38.11</ele>
        <time>2024-07-18T06:56:36Z</time>
      </trkpt>
      <trkpt lat="44.67573" lon="-1.25577">
        <ele>36.19</ele>
        <time>2024-07-18T06:56:39Z</time>
      </trkpt>
      <trkpt lat="44.67572" lon="-1.25574">
        <ele>39.07</ele>
        <time>2024-07-18T06:56:41Z</time>
      </trkpt>
      <trkpt lat="44.67571" lon="-1.25563">
        <ele>38.59</ele>
        <time>2024-07-18T06:56:49Z</time>
      </trkpt>
      <trkpt lat="44.67571" lon="-1.25561">
        <ele>37.15</ele>
        <time>2024-07-18T06:56:51Z</time>
      </trkpt>
      <trkpt lat="44.6757" lon="-1.25552">
        <ele>38.59</ele>
        <time>2024-07-18T06:57:01Z</time>
      </trkpt>
      <trkpt lat="44.6757" lon="-1.2555">
        <ele>38.11</ele>
        <time>2024-07-18T06:57:03Z</time>
      </trkpt>
      <trkpt lat="44.6757" lon="-1.25543">
        <ele>40.03</ele>
        <time>2024-07-18T06:57:10Z</time>
      </trkpt>
      <trkpt lat="44.67569" lon="-1.25536">
        <ele>40.03</ele>
        <time>2024-07-18T06:57:19Z</time>
      </trkpt>
      <trkpt lat="44.67568" lon="-1.25525">
        <ele>40.99</ele>
        <time>2024-07-18T06:57:28Z</time>
      </trkpt>
      <trkpt lat="44.67568" lon="-1.25521">
        <ele>40.51</ele>
        <time>2024-07-18T06:57:32Z</time>
      </trkpt>
      <trkpt lat="44.67567" lon="-1.25513">
        <ele>40.03</ele>
        <time>2024-07-18T06:57:40Z</time>
      </trkpt>
      <trkpt lat="44.67564" lon="-1.25504">
        <ele>40.51</ele>
        <time>2024-07-18T06:57:48Z</time>
      </trkpt>
      <trkpt lat="44.67563" lon="-1.255">
        <ele>39.07</ele>
        <time>2024-07-18T06:57:52Z</time>
      </trkpt>
      <trkpt lat="44.6756" lon="-1.25492">
        <ele>40.03</ele>
        <time>2024-07-18T06:58:01Z</time>
      </trkpt>
      <trkpt lat="44.67558" lon="-1.25487">
        <ele>36.67</ele>
        <time>2024-07-18T06:58:08Z</time>
      </trkpt>
      <trkpt lat="44.67558" lon="-1.25487">
        <ele>40.51</ele>
        <time>2024-07-18T06:58:09Z</time>
      </trkpt>
      <trkpt lat="44.67554" lon="-1.25477">
        <ele>39.55</ele>
        <time>2024-07-18T06:58:19Z</time>
      </trkpt>
      <trkpt lat="44.67551" lon="-1.25467">
        <ele>38.11</ele>
        <time>2024-07-18T06:58:30Z</time>
      </trkpt>
      <trkpt lat="44.67547" lon="-1.25452">
        <ele>39.07</ele>
        <time>2024-07-18T06:58:40Z</time>
      </trkpt>
      <trkpt lat="44.67546" lon="-1.25448">
        <ele>37.15</ele>
        <time>2024-07-18T06:58:43Z</time>
      </trkpt>
      <trkpt lat="44.67544" lon="-1.25439">
        <ele>38.11</ele>
        <time>2024-07-18T06:58:51Z</time>
      </trkpt>
      <trkpt lat="44.67543" lon="-1.25435">
        <ele>37.63</ele>
        <time>2024-07-18T06:58:55Z</time>
      </trkpt>
      <trkpt lat="44.67542" lon="-1.25433">
        <ele>36.19</ele>
        <time>2024-07-18T06:58:57Z</time>
      </trkpt>
      <trkpt lat="44.67539" lon="-1.25424">
        <ele>36.67</ele>
        <time>2024-07-18T06:59:06Z</time>
      </trkpt>
      <trkpt lat="44.67536" lon="-1.25414">
        <ele>35.23</ele>
        <time>2024-07-18T06:59:15Z</time>
      </trkpt>
      <trkpt lat="44.67535" lon="-1.25408">
        <ele>35.23</ele>
        <time>2024-07-18T06:59:20Z</time>
      </trkpt>
      <trkpt lat="44.67532" lon="-1.25396">
        <ele>33.78</ele>
        <time>2024-07-18T06:59:29Z</time>
      </trkpt>
      <trkpt lat="44.67528" lon="-1.25383">
        <ele>33.3</ele>
        <time>2024-07-18T06:59:38Z</time>
      </trkpt>
      <trkpt lat="44.67526" lon="-1.25376">
        <ele>30.9</ele>
        <time>2024-07-18T06:59:47Z</time>
      </trkpt>
      <trkpt lat="44.67524" lon="-1.25368">
        <ele>31.38</ele>
        <time>2024-07-18T06:59:55Z</time>
      </trkpt>
      <trkpt lat="44.6752" lon="-1.25358">
        <ele>30.42</ele>
        <time>2024-07-18T07:00:05Z</time>
      </trkpt>
      <trkpt lat="44.6752" lon="-1.25352">
        <ele>28.02</ele>
        <time>2024-07-18T07:00:13Z</time>
      </trkpt>
      <trkpt lat="44.67519" lon="-1.25349">
        <ele>27.53</ele>
        <time>2024-07-18T07:00:24Z</time>
      </trkpt>
      <trkpt lat="44.67519" lon="-1.25346">
        <ele>27.05</ele>
        <time>2024-07-18T07:00:31Z</time>
      </trkpt>
      <trkpt lat="44.67518" lon="-1.25344">
        <ele>25.13</ele>
        <time>2024-07-18T07:00:40Z</time>
      </trkpt>
      <trkpt lat="44.67518" lon="-1.2534">
        <ele>23.69</ele>
        <time>2024-07-18T07:00:49Z</time>
      </trkpt>
      <trkpt lat="44.67517" lon="-1.25334">
        <ele>25.13</ele>
        <time>2024-07-18T07:00:59Z</time>
      </trkpt>
      <trkpt lat="44.67515" lon="-1.25328">
        <ele>25.61</ele>
        <time>2024-07-18T07:01:04Z</time>
      </trkpt>
      <trkpt lat="44.67513" lon="-1.25318">
        <ele>23.69</ele>
        <time>2024-07-18T07:01:10Z</time>
      </trkpt>
      <trkpt lat="44.67509" lon="-1.25305">
        <ele>22.73</ele>
        <time>2024-07-18T07:01:23Z</time>
      </trkpt>
      <trkpt lat="44.67506" lon="-1.25296">
        <ele>22.73</ele>
        <time>2024-07-18T07:01:34Z</time>
      </trkpt>
      <trkpt lat="44.67505" lon="-1.25285">
        <ele>22.25</ele>
        <time>2024-07-18T07:01:42Z</time>
      </trkpt>
      <trkpt lat="44.67502" lon="-1.25269">
        <ele>23.69</ele>
        <time>2024-07-18T07:01:49Z</time>
      </trkpt>
      <trkpt lat="44.675" lon="-1.25263">
        <ele>21.77</ele>
        <time>2024-07-18T07:01:58Z</time>
      </trkpt>
      <trkpt lat="44.67498" lon="-1.25258">
        <ele>24.17</ele>
        <time>2024-07-18T07:02:08Z</time>
      </trkpt>
      <trkpt lat="44.67497" lon="-1.25252">
        <ele>23.69</ele>
        <time>2024-07-18T07:02:12Z</time>
      </trkpt>
      <trkpt lat="44.6749" lon="-1.25229">
        <ele>23.69</ele>
        <time>2024-07-18T07:02:20Z</time>
      </trkpt>
      <trkpt lat="44.67489" lon="-1.25222">
        <ele>24.65</ele>
        <time>2024-07-18T07:02:30Z</time>
      </trkpt>
      <trkpt lat="44.67489" lon="-1.25218">
        <ele>24.65</ele>
        <time>2024-07-18T07:02:40Z</time>
      </trkpt>
      <trkpt lat="44.67491" lon="-1.25227">
        <ele>21.29</ele>
        <time>2024-07-18T07:02:58Z</time>
      </trkpt>
      <trkpt lat="44.67489" lon="-1.25215">
        <ele>24.65</ele>
        <time>2024-07-18T07:02:59Z</time>
      </trkpt>
      <trkpt lat="44.6749" lon="-1.25209">
        <ele>23.69</ele>
        <time>2024-07-18T07:03:13Z</time>
      </trkpt>
      <trkpt lat="44.6749" lon="-1.25207">
        <ele>27.05</ele>
        <time>2024-07-18T07:03:22Z</time>
      </trkpt>
      <trkpt lat="44.6749" lon="-1.25207">
        <ele>23.69</ele>
        <time>2024-07-18T07:03:23Z</time>
      </trkpt>
      <trkpt lat="44.6749" lon="-1.25207">
        <ele>22.73</ele>
        <time>2024-07-18T07:03:25Z</time>
      </trkpt>
      <trkpt lat="44.6749" lon="-1.25208">
        <ele>22.73</ele>
        <time>2024-07-18T07:03:36Z</time>
      </trkpt>
      <trkpt lat="44.6749" lon="-1.25209">
        <ele>22.25</ele>
        <time>2024-07-18T07:03:48Z</time>
      </trkpt>
      <trkpt lat="44.67489" lon="-1.25208">
        <ele>24.65</ele>
        <time>2024-07-18T07:04:02Z</time>
      </trkpt>
      <trkpt lat="44.67488" lon="-1.25209">
        <ele>19.36</ele>
        <time>2024-07-18T07:04:07Z</time>
      </trkpt>
      <trkpt lat="44.67488" lon="-1.25209">
        <ele>22.73</ele>
        <time>2024-07-18T07:04:08Z</time>
      </trkpt>
      <trkpt lat="44.6749" lon="-1.25212">
        <ele>22.73</ele>
        <time>2024-07-18T07:04:12Z</time>
      </trkpt>
      <trkpt lat="44.67502" lon="-1.25221">
        <ele>18.88</ele>
        <time>2024-07-18T07:04:29Z</time>
      </trkpt>
      <trkpt lat="44.67502" lon="-1.25222">
        <ele>22.25</ele>
        <time>2024-07-18T07:04:30Z</time>
      </trkpt>
      <trkpt lat="44.67491" lon="-1.252">
        <ele>23.21</ele>
        <time>2024-07-18T07:04:44Z</time>
      </trkpt>
      <trkpt lat="44.67491" lon="-1.2519">
        <ele>23.21</ele>
        <time>2024-07-18T07:04:57Z</time>
      </trkpt>
      <trkpt lat="44.67489" lon="-1.25195">
        <ele>22.73</ele>
        <time>2024-07-18T07:05:15Z</time>
      </trkpt>
      <trkpt lat="44.67486" lon="-1.25198">
        <ele>23.21</ele>
        <time>2024-07-18T07:05:33Z</time>
      </trkpt>
      <trkpt lat="44.67483" lon="-1.25192">
        <ele>23.21</ele>
        <time>2024-07-18T07:05:48Z</time>
      </trkpt>
      <trkpt lat="44.67481" lon="-1.25194">
        <ele>22.73</ele>
        <time>2024-07-18T07:06:04Z</time>
      </trkpt>
      <trkpt lat="44.67485" lon="-1.25188">
        <ele>23.21</ele>
        <time>2024-07-18T07:06:19Z</time>
      </trkpt>
      <trkpt lat="44.67485" lon="-1.25189">
        <ele>22.73</ele>
        <time>2024-07-18T07:06:34Z</time>
      </trkpt>
      <trkpt lat="44.67487" lon="-1.25183">
        <ele>22.73</ele>
        <time>2024-07-18T07:06:44Z</time>
      </trkpt>
      <trkpt lat="44.67488" lon="-1.25174">
        <ele>20.81</ele>
        <time>2024-07-18T07:06:50Z</time>
      </trkpt>
      <trkpt lat="44.6749" lon="-1.25156">
        <ele>20.81</ele>
        <time>2024-07-18T07:06:58Z</time>
      </trkpt>
      <trkpt lat="44.67489" lon="-1.25152">
        <ele>19.84</ele>
        <time>2024-07-18T07:07:00Z</time>
      </trkpt>
      <trkpt lat="44.67488" lon="-1.25138">
        <ele>20.81</ele>
        <time>2024-07-18T07:07:08Z</time>
      </trkpt>
      <trkpt lat="44.67488" lon="-1.2513">
        <ele>19.84</ele>
        <time>2024-07-18T07:07:12Z</time>
      </trkpt>
      <trkpt lat="44.67487" lon="-1.25122">
        <ele>19.84</ele>
        <time>2024-07-18T07:07:17Z</time>
      </trkpt>
      <trkpt lat="44.67487" lon="-1.25106">
        <ele>19.36</ele>
        <time>2024-07-18T07:07:25Z</time>
      </trkpt>
      <trkpt lat="44.67483" lon="-1.25091">
        <ele>17.92</ele>
        <time>2024-07-18T07:07:35Z</time>
      </trkpt>
      <trkpt lat="44.67481" lon="-1.25084">
        <ele>18.4</ele>
        <time>2024-07-18T07:07:39Z</time>
      </trkpt>
      <trkpt lat="44.67477" lon="-1.25068">
        <ele>17.92</ele>
        <time>2024-07-18T07:07:48Z</time>
      </trkpt>
      <trkpt lat="44.6747" lon="-1.25051">
        <ele>17.44</ele>
        <time>2024-07-18T07:07:58Z</time>
      </trkpt>
      <trkpt lat="44.67467" lon="-1.25051">
        <ele>16.96</ele>
        <time>2024-07-18T07:08:06Z</time>
      </trkpt>
      <trkpt lat="44.67469" lon="-1.25062">
        <ele>17.44</ele>
        <time>2024-07-18T07:08:17Z</time>
      </trkpt>
      <trkpt lat="44.67471" lon="-1.25068">
        <ele>15.52</ele>
        <time>2024-07-18T07:08:21Z</time>
      </trkpt>
      <trkpt lat="44.67475" lon="-1.25073">
        <ele>18.4</ele>
        <time>2024-07-18T07:08:25Z</time>
      </trkpt>
      <trkpt lat="44.67477" lon="-1.25075">
        <ele>16.96</ele>
        <time>2024-07-18T07:08:27Z</time>
      </trkpt>
      <trkpt lat="44.67479" lon="-1.25082">
        <ele>18.4</ele>
        <time>2024-07-18T07:08:32Z</time>
      </trkpt>
      <trkpt lat="44.6748" lon="-1.25099">
        <ele>19.36</ele>
        <time>2024-07-18T07:08:43Z</time>
      </trkpt>
      <trkpt lat="44.67478" lon="-1.25104">
        <ele>19.36</ele>
        <time>2024-07-18T07:08:47Z</time>
      </trkpt>
      <trkpt lat="44.67477" lon="-1.25104">
        <ele>17.44</ele>
        <time>2024-07-18T07:08:49Z</time>
      </trkpt>
      <trkpt lat="44.67475" lon="-1.25107">
        <ele>18.4</ele>
        <time>2024-07-18T07:08:51Z</time>
      </trkpt>
      <trkpt lat="44.67466" lon="-1.25108">
        <ele>18.88</ele>
        <time>2024-07-18T07:09:00Z</time>
      </trkpt>
      <trkpt lat="44.67465" lon="-1.25109">
        <ele>18.4</ele>
        <time>2024-07-18T07:09:02Z</time>
      </trkpt>
      <trkpt lat="44.67463" lon="-1.2511">
        <ele>20.81</ele>
        <time>2024-07-18T07:09:04Z</time>
      </trkpt>
      <trkpt lat="44.67461" lon="-1.25107">
        <ele>20.32</ele>
        <time>2024-07-18T07:09:13Z</time>
      </trkpt>
      <trkpt lat="44.67453" lon="-1.25102">
        <ele>19.84</ele>
        <time>2024-07-18T07:09:22Z</time>
      </trkpt>
      <trkpt lat="44.67452" lon="-1.25101">
        <ele>23.21</ele>
        <time>2024-07-18T07:09:24Z</time>
      </trkpt>
      <trkpt lat="44.67446" lon="-1.25101">
        <ele>23.69</ele>
        <time>2024-07-18T07:09:30Z</time>
      </trkpt>
      <trkpt lat="44.67441" lon="-1.25096">
        <ele>24.65</ele>
        <time>2024-07-18T07:09:36Z</time>
      </trkpt>
      <trkpt lat="44.67439" lon="-1.25095">
        <ele>24.17</ele>
        <time>2024-07-18T07:09:39Z</time>
      </trkpt>
      <trkpt lat="44.67437" lon="-1.25094">
        <ele>23.21</ele>
        <time>2024-07-18T07:09:41Z</time>
      </trkpt>
      <trkpt lat="44.67432" lon="-1.25088">
        <ele>22.25</ele>
        <time>2024-07-18T07:09:48Z</time>
      </trkpt>
      <trkpt lat="44.67429" lon="-1.25087">
        <ele>22.73</ele>
        <time>2024-07-18T07:09:50Z</time>
      </trkpt>
      <trkpt lat="44.67419" lon="-1.25082">
        <ele>22.25</ele>
        <time>2024-07-18T07:09:58Z</time>
      </trkpt>
      <trkpt lat="44.67414" lon="-1.25069">
        <ele>21.29</ele>
        <time>2024-07-18T07:10:07Z</time>
      </trkpt>
      <trkpt lat="44.67408" lon="-1.25057">
        <ele>19.36</ele>
        <time>2024-07-18T07:10:15Z</time>
      </trkpt>
      <trkpt lat="44.67404" lon="-1.25047">
        <ele>18.88</ele>
        <time>2024-07-18T07:10:23Z</time>
      </trkpt>
      <trkpt lat="44.67398" lon="-1.25041">
        <ele>17.92</ele>
        <time>2024-07-18T07:10:30Z</time>
      </trkpt>
      <trkpt lat="44.67388" lon="-1.25034">
        <ele>16.96</ele>
        <time>2024-07-18T07:10:39Z</time>
      </trkpt>
      <trkpt lat="44.67387" lon="-1.25034">
        <ele>16.48</ele>
        <time>2024-07-18T07:10:40Z</time>
      </trkpt>
      <trkpt lat="44.67375" lon="-1.25036">
        <ele>16</ele>
        <time>2024-07-18T07:10:50Z</time>
      </trkpt>
      <trkpt lat="44.67367" lon="-1.25039">
        <ele>16</ele>
        <time>2024-07-18T07:10:55Z</time>
      </trkpt>
      <trkpt lat="44.67361" lon="-1.25047">
        <ele>15.52</ele>
        <time>2024-07-18T07:11:05Z</time>
      </trkpt>
      <trkpt lat="44.67355" lon="-1.25051">
        <ele>15.04</ele>
        <time>2024-07-18T07:11:12Z</time>
      </trkpt>
      <trkpt lat="44.67337" lon="-1.25057">
        <ele>16</ele>
        <time>2024-07-18T07:11:23Z</time>
      </trkpt>
      <trkpt lat="44.67334" lon="-1.2506">
        <ele>14.56</ele>
        <time>2024-07-18T07:11:26Z</time>
      </trkpt>
      <trkpt lat="44.6733" lon="-1.25061">
        <ele>17.92</ele>
        <time>2024-07-18T07:11:32Z</time>
      </trkpt>
      <trkpt lat="44.67326" lon="-1.25061">
        <ele>18.4</ele>
        <time>2024-07-18T07:11:37Z</time>
      </trkpt>
      <trkpt lat="44.67324" lon="-1.25061">
        <ele>16.96</ele>
        <time>2024-07-18T07:11:39Z</time>
      </trkpt>
      <trkpt lat="44.67316" lon="-1.25067">
        <ele>21.29</ele>
        <time>2024-07-18T07:11:49Z</time>
      </trkpt>
      <trkpt lat="44.67315" lon="-1.25069">
        <ele>18.88</ele>
        <time>2024-07-18T07:11:52Z</time>
      </trkpt>
      <trkpt lat="44.67309" lon="-1.25064">
        <ele>18.4</ele>
        <time>2024-07-18T07:11:59Z</time>
      </trkpt>
      <trkpt lat="44.67306" lon="-1.25062">
        <ele>20.32</ele>
        <time>2024-07-18T07:12:01Z</time>
      </trkpt>
      <trkpt lat="44.67292" lon="-1.25063">
        <ele>19.84</ele>
        <time>2024-07-18T07:12:12Z</time>
      </trkpt>
      <trkpt lat="44.67289" lon="-1.25064">
        <ele>18.4</ele>
        <time>2024-07-18T07:12:14Z</time>
      </trkpt>
      <trkpt lat="44.67286" lon="-1.25065">
        <ele>20.32</ele>
        <time>2024-07-18T07:12:16Z</time>
      </trkpt>
      <trkpt lat="44.67275" lon="-1.25072">
        <ele>19.36</ele>
        <time>2024-07-18T07:12:27Z</time>
      </trkpt>
      <trkpt lat="44.67266" lon="-1.25073">
        <ele>17.44</ele>
        <time>2024-07-18T07:12:37Z</time>
      </trkpt>
      <trkpt lat="44.67256" lon="-1.25073">
        <ele>15.52</ele>
        <time>2024-07-18T07:12:48Z</time>
      </trkpt>
      <trkpt lat="44.67254" lon="-1.25073">
        <ele>15.52</ele>
        <time>2024-07-18T07:12:49Z</time>
      </trkpt>
      <trkpt lat="44.67243" lon="-1.25076">
        <ele>12.15</ele>
        <time>2024-07-18T07:13:01Z</time>
      </trkpt>
      <trkpt lat="44.67242" lon="-1.25076">
        <ele>12.15</ele>
        <time>2024-07-18T07:13:02Z</time>
      </trkpt>
      <trkpt lat="44.67238" lon="-1.25078">
        <ele>15.52</ele>
        <time>2024-07-18T07:13:08Z</time>
      </trkpt>
      <trkpt lat="44.67238" lon="-1.25078">
        <ele>15.04</ele>
        <time>2024-07-18T07:13:09Z</time>
      </trkpt>
      <trkpt lat="44.67225" lon="-1.2508">
        <ele>16</ele>
        <time>2024-07-18T07:13:21Z</time>
      </trkpt>
      <trkpt lat="44.67218" lon="-1.25082">
        <ele>15.52</ele>
        <time>2024-07-18T07:13:33Z</time>
      </trkpt>
      <trkpt lat="44.67212" lon="-1.2508">
        <ele>14.08</ele>
        <time>2024-07-18T07:13:41Z</time>
      </trkpt>
      <trkpt lat="44.67206" lon="-1.25079">
        <ele>14.08</ele>
        <time>2024-07-18T07:13:48Z</time>
      </trkpt>
      <trkpt lat="44.67198" lon="-1.2508">
        <ele>17.44</ele>
        <time>2024-07-18T07:13:52Z</time>
      </trkpt>
      <trkpt lat="44.67193" lon="-1.25085">
        <ele>16</ele>
        <time>2024-07-18T07:13:56Z</time>
      </trkpt>
      <trkpt lat="44.6719" lon="-1.25087">
        <ele>19.36</ele>
        <time>2024-07-18T07:13:58Z</time>
      </trkpt>
      <trkpt lat="44.67189" lon="-1.25088">
        <ele>18.88</ele>
        <time>2024-07-18T07:13:59Z</time>
      </trkpt>
      <trkpt lat="44.67187" lon="-1.25089">
        <ele>17.92</ele>
        <time>2024-07-18T07:14:01Z</time>
      </trkpt>
      <trkpt lat="44.67179" lon="-1.25094">
        <ele>18.88</ele>
        <time>2024-07-18T07:14:14Z</time>
      </trkpt>
      <trkpt lat="44.67175" lon="-1.25103">
        <ele>18.88</ele>
        <time>2024-07-18T07:14:21Z</time>
      </trkpt>
      <trkpt lat="44.67166" lon="-1.25112">
        <ele>16.48</ele>
        <time>2024-07-18T07:14:29Z</time>
      </trkpt>
      <trkpt lat="44.67156" lon="-1.2511">
        <ele>16</ele>
        <time>2024-07-18T07:14:36Z</time>
      </trkpt>
      <trkpt lat="44.67154" lon="-1.25108">
        <ele>15.04</ele>
        <time>2024-07-18T07:14:38Z</time>
      </trkpt>
      <trkpt lat="44.67146" lon="-1.25108">
        <ele>13.6</ele>
        <time>2024-07-18T07:14:44Z</time>
      </trkpt>
      <trkpt lat="44.67138" lon="-1.25112">
        <ele>13.6</ele>
        <time>2024-07-18T07:14:51Z</time>
      </trkpt>
      <trkpt lat="44.67131" lon="-1.25107">
        <ele>12.15</ele>
        <time>2024-07-18T07:14:57Z</time>
      </trkpt>
      <trkpt lat="44.67124" lon="-1.25104">
        <ele>13.6</ele>
        <time>2024-07-18T07:15:01Z</time>
      </trkpt>
      <trkpt lat="44.67115" lon="-1.25103">
        <ele>13.6</ele>
        <time>2024-07-18T07:15:06Z</time>
      </trkpt>
      <trkpt lat="44.67104" lon="-1.25107">
        <ele>13.12</ele>
        <time>2024-07-18T07:15:15Z</time>
      </trkpt>
      <trkpt lat="44.67093" lon="-1.25114">
        <ele>16</ele>
        <time>2024-07-18T07:15:27Z</time>
      </trkpt>
      <trkpt lat="44.67092" lon="-1.25114">
        <ele>16</ele>
        <time>2024-07-18T07:15:28Z</time>
      </trkpt>
      <trkpt lat="44.67087" lon="-1.25115">
        <ele>15.52</ele>
        <time>2024-07-18T07:15:35Z</time>
      </trkpt>
      <trkpt lat="44.67079" lon="-1.25122">
        <ele>18.4</ele>
        <time>2024-07-18T07:15:45Z</time>
      </trkpt>
      <trkpt lat="44.67073" lon="-1.25126">
        <ele>17.44</ele>
        <time>2024-07-18T07:15:51Z</time>
      </trkpt>
      <trkpt lat="44.67068" lon="-1.25123">
        <ele>17.44</ele>
        <time>2024-07-18T07:15:59Z</time>
      </trkpt>
      <trkpt lat="44.67067" lon="-1.25129">
        <ele>17.44</ele>
        <time>2024-07-18T07:16:11Z</time>
      </trkpt>
      <trkpt lat="44.67067" lon="-1.25127">
        <ele>17.44</ele>
        <time>2024-07-18T07:16:22Z</time>
      </trkpt>
      <trkpt lat="44.67065" lon="-1.25125">
        <ele>16.96</ele>
        <time>2024-07-18T07:16:33Z</time>
      </trkpt>
      <trkpt lat="44.67066" lon="-1.25126">
        <ele>17.92</ele>
        <time>2024-07-18T07:16:47Z</time>
      </trkpt>
      <trkpt lat="44.67067" lon="-1.25125">
        <ele>15.04</ele>
        <time>2024-07-18T07:16:59Z</time>
      </trkpt>
      <trkpt lat="44.67067" lon="-1.25125">
        <ele>24.65</ele>
        <time>2024-07-18T07:17:00Z</time>
      </trkpt>
      <trkpt lat="44.67067" lon="-1.25125">
        <ele>19.84</ele>
        <time>2024-07-18T07:17:01Z</time>
      </trkpt>
      <trkpt lat="44.67068" lon="-1.25124">
        <ele>16.96</ele>
        <time>2024-07-18T07:17:03Z</time>
      </trkpt>
      <trkpt lat="44.67066" lon="-1.25121">
        <ele>16.96</ele>
        <time>2024-07-18T07:17:14Z</time>
      </trkpt>
      <trkpt lat="44.67067" lon="-1.25119">
        <ele>13.6</ele>
        <time>2024-07-18T07:17:21Z</time>
      </trkpt>
      <trkpt lat="44.67067" lon="-1.25116">
        <ele>16.48</ele>
        <time>2024-07-18T07:17:25Z</time>
      </trkpt>
      <trkpt lat="44.67067" lon="-1.25114">
        <ele>17.44</ele>
        <time>2024-07-18T07:17:26Z</time>
      </trkpt>
      <trkpt lat="44.67067" lon="-1.25113">
        <ele>15.52</ele>
        <time>2024-07-18T07:17:27Z</time>
      </trkpt>
      <trkpt lat="44.67067" lon="-1.25111">
        <ele>17.44</ele>
        <time>2024-07-18T07:17:28Z</time>
      </trkpt>
      <trkpt lat="44.67067" lon="-1.2511">
        <ele>14.08</ele>
        <time>2024-07-18T07:17:29Z</time>
      </trkpt>
      <trkpt lat="44.67066" lon="-1.25108">
        <ele>16</ele>
        <time>2024-07-18T07:17:30Z</time>
      </trkpt>
      <trkpt lat="44.67066" lon="-1.25107">
        <ele>19.36</ele>
        <time>2024-07-18T07:17:31Z</time>
      </trkpt>
      <trkpt lat="44.67066" lon="-1.25104">
        <ele>16.96</ele>
        <time>2024-07-18T07:17:33Z</time>
      </trkpt>
      <trkpt lat="44.67066" lon="-1.25103">
        <ele>16.96</ele>
        <time>2024-07-18T07:17:34Z</time>
      </trkpt>
      <trkpt lat="44.67066" lon="-1.25114">
        <ele>16.96</ele>
        <time>2024-07-18T07:17:41Z</time>
      </trkpt>
      <trkpt lat="44.67072" lon="-1.25121">
        <ele>16.48</ele>
        <time>2024-07-18T07:17:53Z</time>
      </trkpt>
      <trkpt lat="44.67072" lon="-1.25119">
        <ele>16.48</ele>
        <time>2024-07-18T07:18:08Z</time>
      </trkpt>
      <trkpt lat="44.67072" lon="-1.25118">
        <ele>16</ele>
        <time>2024-07-18T07:18:24Z</time>
      </trkpt>
      <trkpt lat="44.67072" lon="-1.25118">
        <ele>16</ele>
        <time>2024-07-18T07:18:36Z</time>
      </trkpt>
      <trkpt lat="44.67072" lon="-1.25117">
        <ele>15.04</ele>
        <time>2024-07-18T07:18:50Z</time>
      </trkpt>
      <trkpt lat="44.67072" lon="-1.25116">
        <ele>16.48</ele>
        <time>2024-07-18T07:19:00Z</time>
      </trkpt>
      <trkpt lat="44.67071" lon="-1.25116">
        <ele>16.48</ele>
        <time>2024-07-18T07:19:11Z</time>
      </trkpt>
      <trkpt lat="44.67071" lon="-1.25116">
        <ele>15.52</ele>
        <time>2024-07-18T07:19:25Z</time>
      </trkpt>
      <trkpt lat="44.67071" lon="-1.25116">
        <ele>15.52</ele>
        <time>2024-07-18T07:19:38Z</time>
      </trkpt>
      <trkpt lat="44.67071" lon="-1.25116">
        <ele>15.04</ele>
        <time>2024-07-18T07:19:53Z</time>
      </trkpt>
      <trkpt lat="44.67072" lon="-1.25114">
        <ele>15.52</ele>
        <time>2024-07-18T07:20:07Z</time>
      </trkpt>
      <trkpt lat="44.6707" lon="-1.2512">
        <ele>15.04</ele>
        <time>2024-07-18T07:20:18Z</time>
      </trkpt>
      <trkpt lat="44.67067" lon="-1.25127">
        <ele>15.04</ele>
        <time>2024-07-18T07:20:29Z</time>
      </trkpt>
      <trkpt lat="44.67071" lon="-1.25122">
        <ele>17.44</ele>
        <time>2024-07-18T07:20:36Z</time>
      </trkpt>
      <trkpt lat="44.67072" lon="-1.25123">
        <ele>16.96</ele>
        <time>2024-07-18T07:20:37Z</time>
      </trkpt>
      <trkpt lat="44.67074" lon="-1.25122">
        <ele>16</ele>
        <time>2024-07-18T07:20:45Z</time>
      </trkpt>
      <trkpt lat="44.67074" lon="-1.2512">
        <ele>14.08</ele>
        <time>2024-07-18T07:20:55Z</time>
      </trkpt>
      <trkpt lat="44.67074" lon="-1.2512">
        <ele>15.04</ele>
        <time>2024-07-18T07:21:09Z</time>
      </trkpt>
      <trkpt lat="44.67074" lon="-1.25121">
        <ele>14.56</ele>
        <time>2024-07-18T07:21:19Z</time>
      </trkpt>
      <trkpt lat="44.67073" lon="-1.25122">
        <ele>14.56</ele>
        <time>2024-07-18T07:21:32Z</time>
      </trkpt>
      <trkpt lat="44.67073" lon="-1.25122">
        <ele>14.56</ele>
        <time>2024-07-18T07:21:44Z</time>
      </trkpt>
      <trkpt lat="44.67066" lon="-1.2513">
        <ele>13.6</ele>
        <time>2024-07-18T07:21:54Z</time>
      </trkpt>
      <trkpt lat="44.67058" lon="-1.25143">
        <ele>15.04</ele>
        <time>2024-07-18T07:22:04Z</time>
      </trkpt>
      <trkpt lat="44.67054" lon="-1.2515">
        <ele>15.04</ele>
        <time>2024-07-18T07:22:11Z</time>
      </trkpt>
      <trkpt lat="44.67047" lon="-1.25155">
        <ele>15.04</ele>
        <time>2024-07-18T07:22:17Z</time>
      </trkpt>
      <trkpt lat="44.6703" lon="-1.25169">
        <ele>14.08</ele>
        <time>2024-07-18T07:22:30Z</time>
      </trkpt>
      <trkpt lat="44.67029" lon="-1.25169">
        <ele>14.08</ele>
        <time>2024-07-18T07:22:31Z</time>
      </trkpt>
      <trkpt lat="44.67024" lon="-1.2517">
        <ele>13.12</ele>
        <time>2024-07-18T07:22:35Z</time>
      </trkpt>
      <trkpt lat="44.6701" lon="-1.25167">
        <ele>12.15</ele>
        <time>2024-07-18T07:22:46Z</time>
      </trkpt>
      <trkpt lat="44.67007" lon="-1.25166">
        <ele>11.67</ele>
        <time>2024-07-18T07:22:49Z</time>
      </trkpt>
      <trkpt lat="44.67005" lon="-1.25163">
        <ele>12.63</ele>
        <time>2024-07-18T07:22:52Z</time>
      </trkpt>
      <trkpt lat="44.66999" lon="-1.2515">
        <ele>12.63</ele>
        <time>2024-07-18T07:23:01Z</time>
      </trkpt>
      <trkpt lat="44.66995" lon="-1.25145">
        <ele>13.12</ele>
        <time>2024-07-18T07:23:05Z</time>
      </trkpt>
      <trkpt lat="44.66988" lon="-1.25141">
        <ele>11.67</ele>
        <time>2024-07-18T07:23:11Z</time>
      </trkpt>
      <trkpt lat="44.66977" lon="-1.25134">
        <ele>11.67</ele>
        <time>2024-07-18T07:23:20Z</time>
      </trkpt>
      <trkpt lat="44.6697" lon="-1.25136">
        <ele>10.23</ele>
        <time>2024-07-18T07:23:27Z</time>
      </trkpt>
      <trkpt lat="44.66963" lon="-1.25134">
        <ele>8.79</ele>
        <time>2024-07-18T07:23:34Z</time>
      </trkpt>
      <trkpt lat="44.6695" lon="-1.25133">
        <ele>7.83</ele>
        <time>2024-07-18T07:23:43Z</time>
      </trkpt>
      <trkpt lat="44.66939" lon="-1.25127">
        <ele>7.35</ele>
        <time>2024-07-18T07:23:51Z</time>
      </trkpt>
      <trkpt lat="44.66934" lon="-1.25124">
        <ele>5.42</ele>
        <time>2024-07-18T07:23:56Z</time>
      </trkpt>
      <trkpt lat="44.66927" lon="-1.2512">
        <ele>7.83</ele>
        <time>2024-07-18T07:24:04Z</time>
      </trkpt>
      <trkpt lat="44.66924" lon="-1.25118">
        <ele>8.31</ele>
        <time>2024-07-18T07:24:07Z</time>
      </trkpt>
      <trkpt lat="44.66917" lon="-1.25109">
        <ele>8.31</ele>
        <time>2024-07-18T07:24:15Z</time>
      </trkpt>
      <trkpt lat="44.66915" lon="-1.25106">
        <ele>8.79</ele>
        <time>2024-07-18T07:24:18Z</time>
      </trkpt>
      <trkpt lat="44.66911" lon="-1.25098">
        <ele>7.35</ele>
        <time>2024-07-18T07:24:25Z</time>
      </trkpt>
      <trkpt lat="44.66908" lon="-1.25098">
        <ele>8.79</ele>
        <time>2024-07-18T07:24:27Z</time>
      </trkpt>
      <trkpt lat="44.66903" lon="-1.25099">
        <ele>7.35</ele>
        <time>2024-07-18T07:24:32Z</time>
      </trkpt>
      <trkpt lat="44.66893" lon="-1.25096">
        <ele>6.87</ele>
        <time>2024-07-18T07:24:42Z</time>
      </trkpt>
      <trkpt lat="44.66892" lon="-1.25095">
        <ele>7.83</ele>
        <time>2024-07-18T07:24:43Z</time>
      </trkpt>
      <trkpt lat="44.66881" lon="-1.2509">
        <ele>7.35</ele>
        <time>2024-07-18T07:24:52Z</time>
      </trkpt>
      <trkpt lat="44.66877" lon="-1.25089">
        <ele>8.79</ele>
        <time>2024-07-18T07:24:55Z</time>
      </trkpt>
      <trkpt lat="44.66869" lon="-1.25085">
        <ele>7.35</ele>
        <time>2024-07-18T07:25:01Z</time>
      </trkpt>
      <trkpt lat="44.66866" lon="-1.25083">
        <ele>9.27</ele>
        <time>2024-07-18T07:25:04Z</time>
      </trkpt>
      <trkpt lat="44.66864" lon="-1.25083">
        <ele>7.83</ele>
        <time>2024-07-18T07:25:07Z</time>
      </trkpt>
      <trkpt lat="44.6685" lon="-1.25084">
        <ele>8.79</ele>
        <time>2024-07-18T07:25:19Z</time>
      </trkpt>
      <trkpt lat="44.66845" lon="-1.25081">
        <ele>9.27</ele>
        <time>2024-07-18T07:25:24Z</time>
      </trkpt>
      <trkpt lat="44.66843" lon="-1.25078">
        <ele>10.71</ele>
        <time>2024-07-18T07:25:27Z</time>
      </trkpt>
      <trkpt lat="44.66834" lon="-1.25071">
        <ele>11.67</ele>
        <time>2024-07-18T07:25:39Z</time>
      </trkpt>
      <trkpt lat="44.66833" lon="-1.25072">
        <ele>12.63</ele>
        <time>2024-07-18T07:25:41Z</time>
      </trkpt>
      <trkpt lat="44.66833" lon="-1.25072">
        <ele>10.23</ele>
        <time>2024-07-18T07:25:43Z</time>
      </trkpt>
      <trkpt lat="44.66828" lon="-1.25071">
        <ele>12.15</ele>
        <time>2024-07-18T07:25:48Z</time>
      </trkpt>
      <trkpt lat="44.66817" lon="-1.25074">
        <ele>13.12</ele>
        <time>2024-07-18T07:25:59Z</time>
      </trkpt>
      <trkpt lat="44.66806" lon="-1.25077">
        <ele>11.67</ele>
        <time>2024-07-18T07:26:10Z</time>
      </trkpt>
      <trkpt lat="44.668" lon="-1.25075">
        <ele>12.15</ele>
        <time>2024-07-18T07:26:19Z</time>
      </trkpt>
      <trkpt lat="44.66797" lon="-1.25074">
        <ele>11.19</ele>
        <time>2024-07-18T07:26:22Z</time>
      </trkpt>
      <trkpt lat="44.66796" lon="-1.25074">
        <ele>13.12</ele>
        <time>2024-07-18T07:26:25Z</time>
      </trkpt>
      <trkpt lat="44.66795" lon="-1.25074">
        <ele>14.56</ele>
        <time>2024-07-18T07:26:28Z</time>
      </trkpt>
      <trkpt lat="44.66794" lon="-1.25075">
        <ele>11.19</ele>
        <time>2024-07-18T07:26:30Z</time>
      </trkpt>
      <trkpt lat="44.66787" lon="-1.25071">
        <ele>14.08</ele>
        <time>2024-07-18T07:26:35Z</time>
      </trkpt>
      <trkpt lat="44.66775" lon="-1.25067">
        <ele>11.67</ele>
        <time>2024-07-18T07:26:46Z</time>
      </trkpt>
      <trkpt lat="44.66769" lon="-1.25067">
        <ele>11.67</ele>
        <time>2024-07-18T07:26:50Z</time>
      </trkpt>
      <trkpt lat="44.6676" lon="-1.25068">
        <ele>9.75</ele>
        <time>2024-07-18T07:26:55Z</time>
      </trkpt>
      <trkpt lat="44.66745" lon="-1.2507">
        <ele>9.27</ele>
        <time>2024-07-18T07:27:06Z</time>
      </trkpt>
      <trkpt lat="44.66733" lon="-1.25067">
        <ele>8.79</ele>
        <time>2024-07-18T07:27:17Z</time>
      </trkpt>
      <trkpt lat="44.66732" lon="-1.25066">
        <ele>8.79</ele>
        <time>2024-07-18T07:27:18Z</time>
      </trkpt>
      <trkpt lat="44.6673" lon="-1.25066">
        <ele>10.23</ele>
        <time>2024-07-18T07:27:20Z</time>
      </trkpt>
      <trkpt lat="44.66717" lon="-1.25073">
        <ele>11.67</ele>
        <time>2024-07-18T07:27:29Z</time>
      </trkpt>
      <trkpt lat="44.66707" lon="-1.25075">
        <ele>10.71</ele>
        <time>2024-07-18T07:27:40Z</time>
      </trkpt>
      <trkpt lat="44.66703" lon="-1.25076">
        <ele>13.12</ele>
        <time>2024-07-18T07:27:43Z</time>
      </trkpt>
      <trkpt lat="44.66691" lon="-1.25077">
        <ele>13.12</ele>
        <time>2024-07-18T07:27:53Z</time>
      </trkpt>
      <trkpt lat="44.66682" lon="-1.25073">
        <ele>12.15</ele>
        <time>2024-07-18T07:28:03Z</time>
      </trkpt>
      <trkpt lat="44.66681" lon="-1.25073">
        <ele>12.15</ele>
        <time>2024-07-18T07:28:04Z</time>
      </trkpt>
      <trkpt lat="44.66669" lon="-1.25074">
        <ele>11.67</ele>
        <time>2024-07-18T07:28:14Z</time>
      </trkpt>
      <trkpt lat="44.66668" lon="-1.25074">
        <ele>11.67</ele>
        <time>2024-07-18T07:28:15Z</time>
      </trkpt>
      <trkpt lat="44.66657" lon="-1.25073">
        <ele>12.15</ele>
        <time>2024-07-18T07:28:24Z</time>
      </trkpt>
      <trkpt lat="44.66642" lon="-1.25072">
        <ele>12.63</ele>
        <time>2024-07-18T07:28:35Z</time>
      </trkpt>
      <trkpt lat="44.66638" lon="-1.25071">
        <ele>13.6</ele>
        <time>2024-07-18T07:28:41Z</time>
      </trkpt>
      <trkpt lat="44.66636" lon="-1.25071">
        <ele>13.12</ele>
        <time>2024-07-18T07:28:44Z</time>
      </trkpt>
      <trkpt lat="44.66622" lon="-1.25075">
        <ele>12.63</ele>
        <time>2024-07-18T07:28:55Z</time>
      </trkpt>
      <trkpt lat="44.66612" lon="-1.25072">
        <ele>12.15</ele>
        <time>2024-07-18T07:29:04Z</time>
      </trkpt>
      <trkpt lat="44.66599" lon="-1.2507">
        <ele>11.19</ele>
        <time>2024-07-18T07:29:14Z</time>
      </trkpt>
      <trkpt lat="44.66592" lon="-1.2507">
        <ele>10.23</ele>
        <time>2024-07-18T07:29:20Z</time>
      </trkpt>
      <trkpt lat="44.66588" lon="-1.25071">
        <ele>12.15</ele>
        <time>2024-07-18T07:29:23Z</time>
      </trkpt>
      <trkpt lat="44.66585" lon="-1.2507">
        <ele>13.6</ele>
        <time>2024-07-18T07:29:25Z</time>
      </trkpt>
      <trkpt lat="44.66582" lon="-1.2507">
        <ele>10.71</ele>
        <time>2024-07-18T07:29:29Z</time>
      </trkpt>
      <trkpt lat="44.66574" lon="-1.2507">
        <ele>12.63</ele>
        <time>2024-07-18T07:29:35Z</time>
      </trkpt>
      <trkpt lat="44.66563" lon="-1.25072">
        <ele>12.63</ele>
        <time>2024-07-18T07:29:45Z</time>
      </trkpt>
      <trkpt lat="44.66557" lon="-1.25073">
        <ele>12.15</ele>
        <time>2024-07-18T07:29:50Z</time>
      </trkpt>
      <trkpt lat="44.66544" lon="-1.25078">
        <ele>11.19</ele>
        <time>2024-07-18T07:30:00Z</time>
      </trkpt>
      <trkpt lat="44.6654" lon="-1.25082">
        <ele>9.27</ele>
        <time>2024-07-18T07:30:03Z</time>
      </trkpt>
      <trkpt lat="44.66534" lon="-1.25086">
        <ele>9.27</ele>
        <time>2024-07-18T07:30:12Z</time>
      </trkpt>
      <trkpt lat="44.6652" lon="-1.25093">
        <ele>9.27</ele>
        <time>2024-07-18T07:30:24Z</time>
      </trkpt>
      <trkpt lat="44.66514" lon="-1.25097">
        <ele>8.79</ele>
        <time>2024-07-18T07:30:30Z</time>
      </trkpt>
      <trkpt lat="44.66512" lon="-1.25098">
        <ele>7.35</ele>
        <time>2024-07-18T07:30:31Z</time>
      </trkpt>
      <trkpt lat="44.66508" lon="-1.25099">
        <ele>8.79</ele>
        <time>2024-07-18T07:30:34Z</time>
      </trkpt>
      <trkpt lat="44.665" lon="-1.25102">
        <ele>6.39</ele>
        <time>2024-07-18T07:30:40Z</time>
      </trkpt>
      <trkpt lat="44.66498" lon="-1.25101">
        <ele>7.83</ele>
        <time>2024-07-18T07:30:42Z</time>
      </trkpt>
      <trkpt lat="44.66497" lon="-1.25101">
        <ele>8.31</ele>
        <time>2024-07-18T07:30:43Z</time>
      </trkpt>
      <trkpt lat="44.66488" lon="-1.25095">
        <ele>8.79</ele>
        <time>2024-07-18T07:30:53Z</time>
      </trkpt>
      <trkpt lat="44.66476" lon="-1.25088">
        <ele>7.83</ele>
        <time>2024-07-18T07:31:02Z</time>
      </trkpt>
      <trkpt lat="44.66464" lon="-1.25086">
        <ele>6.87</ele>
        <time>2024-07-18T07:31:11Z</time>
      </trkpt>
      <trkpt lat="44.6645" lon="-1.2509">
        <ele>6.87</ele>
        <time>2024-07-18T07:31:23Z</time>
      </trkpt>
      <trkpt lat="44.66448" lon="-1.25089">
        <ele>6.39</ele>
        <time>2024-07-18T07:31:25Z</time>
      </trkpt>
      <trkpt lat="44.66438" lon="-1.25088">
        <ele>8.79</ele>
        <time>2024-07-18T07:31:34Z</time>
      </trkpt>
      <trkpt lat="44.66424" lon="-1.25089">
        <ele>7.35</ele>
        <time>2024-07-18T07:31:45Z</time>
      </trkpt>
      <trkpt lat="44.66413" lon="-1.25089">
        <ele>7.83</ele>
        <time>2024-07-18T07:31:54Z</time>
      </trkpt>
      <trkpt lat="44.66412" lon="-1.25089">
        <ele>6.87</ele>
        <time>2024-07-18T07:31:55Z</time>
      </trkpt>
      <trkpt lat="44.66402" lon="-1.2509">
        <ele>6.87</ele>
        <time>2024-07-18T07:32:06Z</time>
      </trkpt>
      <trkpt lat="44.66386" lon="-1.2509">
        <ele>6.39</ele>
        <time>2024-07-18T07:32:18Z</time>
      </trkpt>
      <trkpt lat="44.66379" lon="-1.2509">
        <ele>4.94</ele>
        <time>2024-07-18T07:32:26Z</time>
      </trkpt>
      <trkpt lat="44.66367" lon="-1.25088">
        <ele>4.46</ele>
        <time>2024-07-18T07:32:35Z</time>
      </trkpt>
      <trkpt lat="44.66366" lon="-1.25088">
        <ele>4.46</ele>
        <time>2024-07-18T07:32:36Z</time>
      </trkpt>
      <trkpt lat="44.66363" lon="-1.25087">
        <ele>7.83</ele>
        <time>2024-07-18T07:32:45Z</time>
      </trkpt>
      <trkpt lat="44.66363" lon="-1.25086">
        <ele>7.83</ele>
        <time>2024-07-18T07:32:46Z</time>
      </trkpt>
      <trkpt lat="44.66361" lon="-1.25086">
        <ele>4.46</ele>
        <time>2024-07-18T07:32:48Z</time>
      </trkpt>
      <trkpt lat="44.66359" lon="-1.25086">
        <ele>7.35</ele>
        <time>2024-07-18T07:32:50Z</time>
      </trkpt>
      <trkpt lat="44.66357" lon="-1.25087">
        <ele>8.79</ele>
        <time>2024-07-18T07:32:52Z</time>
      </trkpt>
      <trkpt lat="44.66355" lon="-1.25087">
        <ele>7.35</ele>
        <time>2024-07-18T07:32:54Z</time>
      </trkpt>
      <trkpt lat="44.66344" lon="-1.25089">
        <ele>9.27</ele>
        <time>2024-07-18T07:33:05Z</time>
      </trkpt>
      <trkpt lat="44.66338" lon="-1.25092">
        <ele>9.75</ele>
        <time>2024-07-18T07:33:15Z</time>
      </trkpt>
      <trkpt lat="44.66335" lon="-1.25094">
        <ele>9.75</ele>
        <time>2024-07-18T07:33:18Z</time>
      </trkpt>
      <trkpt lat="44.6632" lon="-1.25091">
        <ele>10.23</ele>
        <time>2024-07-18T07:33:29Z</time>
      </trkpt>
      <trkpt lat="44.66319" lon="-1.25091">
        <ele>10.71</ele>
        <time>2024-07-18T07:33:30Z</time>
      </trkpt>
      <trkpt lat="44.66306" lon="-1.25092">
        <ele>8.79</ele>
        <time>2024-07-18T07:33:38Z</time>
      </trkpt>
      <trkpt lat="44.66304" lon="-1.25092">
        <ele>10.71</ele>
        <time>2024-07-18T07:33:40Z</time>
      </trkpt>
      <trkpt lat="44.66293" lon="-1.2509">
        <ele>10.23</ele>
        <time>2024-07-18T07:33:49Z</time>
      </trkpt>
      <trkpt lat="44.66276" lon="-1.25092">
        <ele>9.75</ele>
        <time>2024-07-18T07:34:01Z</time>
      </trkpt>
      <trkpt lat="44.66266" lon="-1.25096">
        <ele>10.23</ele>
        <time>2024-07-18T07:34:09Z</time>
      </trkpt>
      <trkpt lat="44.66255" lon="-1.25109">
        <ele>9.75</ele>
        <time>2024-07-18T07:34:21Z</time>
      </trkpt>
      <trkpt lat="44.66244" lon="-1.25119">
        <ele>9.75</ele>
        <time>2024-07-18T07:34:32Z</time>
      </trkpt>
      <trkpt lat="44.66239" lon="-1.25124">
        <ele>8.79</ele>
        <time>2024-07-18T07:34:37Z</time>
      </trkpt>
      <trkpt lat="44.66227" lon="-1.25131">
        <ele>9.75</ele>
        <time>2024-07-18T07:34:46Z</time>
      </trkpt>
      <trkpt lat="44.66222" lon="-1.25129">
        <ele>8.79</ele>
        <time>2024-07-18T07:34:56Z</time>
      </trkpt>
      <trkpt lat="44.66224" lon="-1.25125">
        <ele>8.79</ele>
        <time>2024-07-18T07:35:07Z</time>
      </trkpt>
      <trkpt lat="44.66223" lon="-1.25122">
        <ele>8.79</ele>
        <time>2024-07-18T07:35:19Z</time>
      </trkpt>
      <trkpt lat="44.66224" lon="-1.25123">
        <ele>8.79</ele>
        <time>2024-07-18T07:35:32Z</time>
      </trkpt>
      <trkpt lat="44.66223" lon="-1.25123">
        <ele>8.79</ele>
        <time>2024-07-18T07:35:44Z</time>
      </trkpt>
      <trkpt lat="44.66222" lon="-1.25122">
        <ele>9.27</ele>
        <time>2024-07-18T07:35:59Z</time>
      </trkpt>
      <trkpt lat="44.66223" lon="-1.25122">
        <ele>8.79</ele>
        <time>2024-07-18T07:36:14Z</time>
      </trkpt>
      <trkpt lat="44.66222" lon="-1.25123">
        <ele>8.79</ele>
        <time>2024-07-18T07:36:27Z</time>
      </trkpt>
      <trkpt lat="44.66223" lon="-1.25122">
        <ele>9.27</ele>
        <time>2024-07-18T07:36:43Z</time>
      </trkpt>
      <trkpt lat="44.66223" lon="-1.25122">
        <ele>9.27</ele>
        <time>2024-07-18T07:36:59Z</time>
      </trkpt>
      <trkpt lat="44.66223" lon="-1.25122">
        <ele>9.27</ele>
        <time>2024-07-18T07:37:14Z</time>
      </trkpt>
      <trkpt lat="44.6622" lon="-1.25122">
        <ele>9.27</ele>
        <time>2024-07-18T07:37:25Z</time>
      </trkpt>
      <trkpt lat="44.66217" lon="-1.25115">
        <ele>8.79</ele>
        <time>2024-07-18T07:37:32Z</time>
      </trkpt>
      <trkpt lat="44.66215" lon="-1.25106">
        <ele>8.79</ele>
        <time>2024-07-18T07:37:41Z</time>
      </trkpt>
      <trkpt lat="44.66211" lon="-1.25095">
        <ele>9.27</ele>
        <time>2024-07-18T07:37:51Z</time>
      </trkpt>
      <trkpt lat="44.66207" lon="-1.25083">
        <ele>9.27</ele>
        <time>2024-07-18T07:37:58Z</time>
      </trkpt>
      <trkpt lat="44.66202" lon="-1.25067">
        <ele>8.31</ele>
        <time>2024-07-18T07:38:06Z</time>
      </trkpt>
      <trkpt lat="44.662" lon="-1.2506">
        <ele>8.31</ele>
        <time>2024-07-18T07:38:14Z</time>
      </trkpt>
      <trkpt lat="44.66198" lon="-1.25052">
        <ele>9.27</ele>
        <time>2024-07-18T07:38:20Z</time>
      </trkpt>
      <trkpt lat="44.66195" lon="-1.25028">
        <ele>7.83</ele>
        <time>2024-07-18T07:38:32Z</time>
      </trkpt>
      <trkpt lat="44.66192" lon="-1.25013">
        <ele>6.87</ele>
        <time>2024-07-18T07:38:41Z</time>
      </trkpt>
      <trkpt lat="44.6619" lon="-1.25003">
        <ele>6.87</ele>
        <time>2024-07-18T07:38:49Z</time>
      </trkpt>
      <trkpt lat="44.66187" lon="-1.24988">
        <ele>4.46</ele>
        <time>2024-07-18T07:38:58Z</time>
      </trkpt>
      <trkpt lat="44.66187" lon="-1.24987">
        <ele>4.46</ele>
        <time>2024-07-18T07:38:59Z</time>
      </trkpt>
      <trkpt lat="44.66187" lon="-1.2498">
        <ele>5.91</ele>
        <time>2024-07-18T07:39:03Z</time>
      </trkpt>
      <trkpt lat="44.66184" lon="-1.24963">
        <ele>4.94</ele>
        <time>2024-07-18T07:39:13Z</time>
      </trkpt>
      <trkpt lat="44.66183" lon="-1.2495">
        <ele>3.98</ele>
        <time>2024-07-18T07:39:21Z</time>
      </trkpt>
      <trkpt lat="44.66183" lon="-1.24938">
        <ele>3.5</ele>
        <time>2024-07-18T07:39:27Z</time>
      </trkpt>
      <trkpt lat="44.66181" lon="-1.24914">
        <ele>3.02</ele>
        <time>2024-07-18T07:39:39Z</time>
      </trkpt>
      <trkpt lat="44.66181" lon="-1.24912">
        <ele>3.02</ele>
        <time>2024-07-18T07:39:40Z</time>
      </trkpt>
      <trkpt lat="44.6618" lon="-1.24895">
        <ele>3.98</ele>
        <time>2024-07-18T07:39:51Z</time>
      </trkpt>
      <trkpt lat="44.66178" lon="-1.24874">
        <ele>3.5</ele>
        <time>2024-07-18T07:40:02Z</time>
      </trkpt>
      <trkpt lat="44.66182" lon="-1.2486">
        <ele>3.02</ele>
        <time>2024-07-18T07:40:10Z</time>
      </trkpt>
      <trkpt lat="44.66183" lon="-1.24857">
        <ele>3.98</ele>
        <time>2024-07-18T07:40:12Z</time>
      </trkpt>
      <trkpt lat="44.66179" lon="-1.24839">
        <ele>3.02</ele>
        <time>2024-07-18T07:40:21Z</time>
      </trkpt>
      <trkpt lat="44.66176" lon="-1.24831">
        <ele>3.98</ele>
        <time>2024-07-18T07:40:27Z</time>
      </trkpt>
      <trkpt lat="44.66175" lon="-1.24824">
        <ele>2.54</ele>
        <time>2024-07-18T07:40:32Z</time>
      </trkpt>
      <trkpt lat="44.66174" lon="-1.24804">
        <ele>3.02</ele>
        <time>2024-07-18T07:40:43Z</time>
      </trkpt>
      <trkpt lat="44.66174" lon="-1.24797">
        <ele>3.5</ele>
        <time>2024-07-18T07:40:48Z</time>
      </trkpt>
      <trkpt lat="44.66174" lon="-1.24778">
        <ele>1.1</ele>
        <time>2024-07-18T07:40:56Z</time>
      </trkpt>
      <trkpt lat="44.66174" lon="-1.24771">
        <ele>2.54</ele>
        <time>2024-07-18T07:41:01Z</time>
      </trkpt>
      <trkpt lat="44.6617" lon="-1.24751">
        <ele>1.58</ele>
        <time>2024-07-18T07:41:11Z</time>
      </trkpt>
      <trkpt lat="44.66165" lon="-1.24733">
        <ele>1.58</ele>
        <time>2024-07-18T07:41:23Z</time>
      </trkpt>
      <trkpt lat="44.66158" lon="-1.24724">
        <ele>0.62</ele>
        <time>2024-07-18T07:41:33Z</time>
      </trkpt>
      <trkpt lat="44.66151" lon="-1.24713">
        <ele>1.58</ele>
        <time>2024-07-18T07:41:45Z</time>
      </trkpt>
      <trkpt lat="44.66149" lon="-1.24699">
        <ele>0.62</ele>
        <time>2024-07-18T07:41:53Z</time>
      </trkpt>
      <trkpt lat="44.66144" lon="-1.24677">
        <ele>1.1</ele>
        <time>2024-07-18T07:42:03Z</time>
      </trkpt>
      <trkpt lat="44.66139" lon="-1.24668">
        <ele>2.06</ele>
        <time>2024-07-18T07:42:13Z</time>
      </trkpt>
      <trkpt lat="44.66136" lon="-1.24659">
        <ele>1.58</ele>
        <time>2024-07-18T07:42:19Z</time>
      </trkpt>
      <trkpt lat="44.66134" lon="-1.24649">
        <ele>1.58</ele>
        <time>2024-07-18T07:42:25Z</time>
      </trkpt>
      <trkpt lat="44.66133" lon="-1.24639">
        <ele>0.62</ele>
        <time>2024-07-18T07:42:31Z</time>
      </trkpt>
      <trkpt lat="44.66129" lon="-1.24616">
        <ele>-0.34</ele>
        <time>2024-07-18T07:42:40Z</time>
      </trkpt>
      <trkpt lat="44.66127" lon="-1.24607">
        <ele>1.1</ele>
        <time>2024-07-18T07:42:44Z</time>
      </trkpt>
      <trkpt lat="44.66126" lon="-1.24602">
        <ele>0.62</ele>
        <time>2024-07-18T07:42:48Z</time>
      </trkpt>
      <trkpt lat="44.66127" lon="-1.24592">
        <ele>0.62</ele>
        <time>2024-07-18T07:42:53Z</time>
      </trkpt>
      <trkpt lat="44.66125" lon="-1.24578">
        <ele>0.14</ele>
        <time>2024-07-18T07:43:02Z</time>
      </trkpt>
      <trkpt lat="44.66122" lon="-1.24563">
        <ele>0.14</ele>
        <time>2024-07-18T07:43:11Z</time>
      </trkpt>
      <trkpt lat="44.66122" lon="-1.24559">
        <ele>0.14</ele>
        <time>2024-07-18T07:43:14Z</time>
      </trkpt>
      <trkpt lat="44.66118" lon="-1.24537">
        <ele>1.1</ele>
        <time>2024-07-18T07:43:26Z</time>
      </trkpt>
      <trkpt lat="44.66117" lon="-1.24516">
        <ele>0.62</ele>
        <time>2024-07-18T07:43:37Z</time>
      </trkpt>
      <trkpt lat="44.66117" lon="-1.24499">
        <ele>-0.82</ele>
        <time>2024-07-18T07:43:47Z</time>
      </trkpt>
      <trkpt lat="44.66117" lon="-1.24482">
        <ele>-0.34</ele>
        <time>2024-07-18T07:43:57Z</time>
      </trkpt>
      <trkpt lat="44.66115" lon="-1.24465">
        <ele>-1.3</ele>
        <time>2024-07-18T07:44:07Z</time>
      </trkpt>
      <trkpt lat="44.66113" lon="-1.24447">
        <ele>-0.34</ele>
        <time>2024-07-18T07:44:16Z</time>
      </trkpt>
      <trkpt lat="44.66114" lon="-1.24434">
        <ele>-1.3</ele>
        <time>2024-07-18T07:44:23Z</time>
      </trkpt>
      <trkpt lat="44.66111" lon="-1.24416">
        <ele>0.14</ele>
        <time>2024-07-18T07:44:34Z</time>
      </trkpt>
      <trkpt lat="44.66111" lon="-1.24414">
        <ele>0.14</ele>
        <time>2024-07-18T07:44:35Z</time>
      </trkpt>
      <trkpt lat="44.6611" lon="-1.24397">
        <ele>0.14</ele>
        <time>2024-07-18T07:44:44Z</time>
      </trkpt>
      <trkpt lat="44.66111" lon="-1.24388">
        <ele>1.1</ele>
        <time>2024-07-18T07:44:49Z</time>
      </trkpt>
      <trkpt lat="44.6611" lon="-1.24378">
        <ele>1.58</ele>
        <time>2024-07-18T07:44:57Z</time>
      </trkpt>
      <trkpt lat="44.6611" lon="-1.24368">
        <ele>1.58</ele>
        <time>2024-07-18T07:45:03Z</time>
      </trkpt>
      <trkpt lat="44.66108" lon="-1.2435">
        <ele>2.06</ele>
        <time>2024-07-18T07:45:12Z</time>
      </trkpt>
      <trkpt lat="44.66106" lon="-1.24345">
        <ele>0.62</ele>
        <time>2024-07-18T07:45:15Z</time>
      </trkpt>
      <trkpt lat="44.66106" lon="-1.24342">
        <ele>2.54</ele>
        <time>2024-07-18T07:45:17Z</time>
      </trkpt>
      <trkpt lat="44.66105" lon="-1.24327">
        <ele>3.02</ele>
        <time>2024-07-18T07:45:26Z</time>
      </trkpt>
      <trkpt lat="44.66106" lon="-1.24313">
        <ele>2.54</ele>
        <time>2024-07-18T07:45:35Z</time>
      </trkpt>
      <trkpt lat="44.66105" lon="-1.24309">
        <ele>3.02</ele>
        <time>2024-07-18T07:45:37Z</time>
      </trkpt>
      <trkpt lat="44.66104" lon="-1.24303">
        <ele>2.06</ele>
        <time>2024-07-18T07:45:41Z</time>
      </trkpt>
      <trkpt lat="44.66103" lon="-1.24291">
        <ele>3.5</ele>
        <time>2024-07-18T07:45:49Z</time>
      </trkpt>
      <trkpt lat="44.66102" lon="-1.24281">
        <ele>3.5</ele>
        <time>2024-07-18T07:45:55Z</time>
      </trkpt>
      <trkpt lat="44.66101" lon="-1.24268">
        <ele>2.54</ele>
        <time>2024-07-18T07:46:02Z</time>
      </trkpt>
      <trkpt lat="44.66098" lon="-1.24255">
        <ele>3.98</ele>
        <time>2024-07-18T07:46:09Z</time>
      </trkpt>
      <trkpt lat="44.66096" lon="-1.24242">
        <ele>4.46</ele>
        <time>2024-07-18T07:46:17Z</time>
      </trkpt>
      <trkpt lat="44.66096" lon="-1.24234">
        <ele>4.46</ele>
        <time>2024-07-18T07:46:25Z</time>
      </trkpt>
      <trkpt lat="44.66096" lon="-1.24219">
        <ele>3.02</ele>
        <time>2024-07-18T07:46:32Z</time>
      </trkpt>
      <trkpt lat="44.66095" lon="-1.24215">
        <ele>4.46</ele>
        <time>2024-07-18T07:46:39Z</time>
      </trkpt>
      <trkpt lat="44.66094" lon="-1.24209">
        <ele>3.5</ele>
        <time>2024-07-18T07:46:44Z</time>
      </trkpt>
      <trkpt lat="44.66094" lon="-1.24194">
        <ele>2.54</ele>
        <time>2024-07-18T07:46:50Z</time>
      </trkpt>
      <trkpt lat="44.66093" lon="-1.2418">
        <ele>2.06</ele>
        <time>2024-07-18T07:46:58Z</time>
      </trkpt>
      <trkpt lat="44.66098" lon="-1.24167">
        <ele>2.54</ele>
        <time>2024-07-18T07:47:06Z</time>
      </trkpt>
      <trkpt lat="44.66103" lon="-1.24165">
        <ele>3.02</ele>
        <time>2024-07-18T07:47:09Z</time>
      </trkpt>
      <trkpt lat="44.66117" lon="-1.24163">
        <ele>2.06</ele>
        <time>2024-07-18T07:47:19Z</time>
      </trkpt>
      <trkpt lat="44.66125" lon="-1.24161">
        <ele>3.02</ele>
        <time>2024-07-18T07:47:24Z</time>
      </trkpt>
      <trkpt lat="44.66133" lon="-1.24159">
        <ele>1.1</ele>
        <time>2024-07-18T07:47:30Z</time>
      </trkpt>
      <trkpt lat="44.6614" lon="-1.24157">
        <ele>3.5</ele>
        <time>2024-07-18T07:47:37Z</time>
      </trkpt>
      <trkpt lat="44.66157" lon="-1.24157">
        <ele>3.5</ele>
        <time>2024-07-18T07:47:49Z</time>
      </trkpt>
      <trkpt lat="44.66166" lon="-1.24156">
        <ele>3.02</ele>
        <time>2024-07-18T07:48:00Z</time>
      </trkpt>
      <trkpt lat="44.66171" lon="-1.24155">
        <ele>3.98</ele>
        <time>2024-07-18T07:48:05Z</time>
      </trkpt>
      <trkpt lat="44.66185" lon="-1.24157">
        <ele>3.98</ele>
        <time>2024-07-18T07:48:16Z</time>
      </trkpt>
      <trkpt lat="44.66188" lon="-1.24157">
        <ele>3.02</ele>
        <time>2024-07-18T07:48:18Z</time>
      </trkpt>
      <trkpt lat="44.66197" lon="-1.24158">
        <ele>5.42</ele>
        <time>2024-07-18T07:48:25Z</time>
      </trkpt>
      <trkpt lat="44.66211" lon="-1.24156">
        <ele>4.94</ele>
        <time>2024-07-18T07:48:35Z</time>
      </trkpt>
      <trkpt lat="44.66212" lon="-1.24157">
        <ele>4.46</ele>
        <time>2024-07-18T07:48:36Z</time>
      </trkpt>
      <trkpt lat="44.66216" lon="-1.24158">
        <ele>6.39</ele>
        <time>2024-07-18T07:48:40Z</time>
      </trkpt>
      <trkpt lat="44.66228" lon="-1.24156">
        <ele>5.42</ele>
        <time>2024-07-18T07:48:50Z</time>
      </trkpt>
      <trkpt lat="44.66232" lon="-1.24155">
        <ele>7.83</ele>
        <time>2024-07-18T07:48:53Z</time>
      </trkpt>
      <trkpt lat="44.66244" lon="-1.24155">
        <ele>8.31</ele>
        <time>2024-07-18T07:49:04Z</time>
      </trkpt>
      <trkpt lat="44.66245" lon="-1.24155">
        <ele>8.31</ele>
        <time>2024-07-18T07:49:05Z</time>
      </trkpt>
      <trkpt lat="44.66257" lon="-1.24154">
        <ele>7.35</ele>
        <time>2024-07-18T07:49:14Z</time>
      </trkpt>
      <trkpt lat="44.6626" lon="-1.24154">
        <ele>9.75</ele>
        <time>2024-07-18T07:49:16Z</time>
      </trkpt>
      <trkpt lat="44.6627" lon="-1.2415">
        <ele>10.23</ele>
        <time>2024-07-18T07:49:24Z</time>
      </trkpt>
      <trkpt lat="44.66281" lon="-1.24152">
        <ele>9.27</ele>
        <time>2024-07-18T07:49:35Z</time>
      </trkpt>
      <trkpt lat="44.66294" lon="-1.24151">
        <ele>9.75</ele>
        <time>2024-07-18T07:49:48Z</time>
      </trkpt>
      <trkpt lat="44.66305" lon="-1.24156">
        <ele>9.27</ele>
        <time>2024-07-18T07:49:57Z</time>
      </trkpt>
      <trkpt lat="44.66314" lon="-1.24155">
        <ele>9.27</ele>
        <time>2024-07-18T07:50:07Z</time>
      </trkpt>
      <trkpt lat="44.66327" lon="-1.24153">
        <ele>10.23</ele>
        <time>2024-07-18T07:50:18Z</time>
      </trkpt>
      <trkpt lat="44.66329" lon="-1.24153">
        <ele>9.27</ele>
        <time>2024-07-18T07:50:20Z</time>
      </trkpt>
      <trkpt lat="44.66331" lon="-1.24153">
        <ele>9.75</ele>
        <time>2024-07-18T07:50:22Z</time>
      </trkpt>
      <trkpt lat="44.66335" lon="-1.24154">
        <ele>10.71</ele>
        <time>2024-07-18T07:50:27Z</time>
      </trkpt>
      <trkpt lat="44.66342" lon="-1.24155">
        <ele>9.27</ele>
        <time>2024-07-18T07:50:33Z</time>
      </trkpt>
      <trkpt lat="44.66343" lon="-1.24156">
        <ele>11.19</ele>
        <time>2024-07-18T07:50:35Z</time>
      </trkpt>
      <trkpt lat="44.66348" lon="-1.24158">
        <ele>11.67</ele>
        <time>2024-07-18T07:50:44Z</time>
      </trkpt>
      <trkpt lat="44.66352" lon="-1.24157">
        <ele>10.71</ele>
        <time>2024-07-18T07:50:49Z</time>
      </trkpt>
      <trkpt lat="44.66357" lon="-1.24157">
        <ele>13.6</ele>
        <time>2024-07-18T07:50:52Z</time>
      </trkpt>
      <trkpt lat="44.66372" lon="-1.24156">
        <ele>12.63</ele>
        <time>2024-07-18T07:51:04Z</time>
      </trkpt>
      <trkpt lat="44.66385" lon="-1.24159">
        <ele>14.56</ele>
        <time>2024-07-18T07:51:16Z</time>
      </trkpt>
      <trkpt lat="44.66391" lon="-1.2416">
        <ele>14.56</ele>
        <time>2024-07-18T07:51:22Z</time>
      </trkpt>
      <trkpt lat="44.66395" lon="-1.24157">
        <ele>14.56</ele>
        <time>2024-07-18T07:51:26Z</time>
      </trkpt>
      <trkpt lat="44.66403" lon="-1.2415">
        <ele>15.52</ele>
        <time>2024-07-18T07:51:37Z</time>
      </trkpt>
      <trkpt lat="44.66415" lon="-1.24152">
        <ele>15.52</ele>
        <time>2024-07-18T07:51:49Z</time>
      </trkpt>
      <trkpt lat="44.6642" lon="-1.2415">
        <ele>16</ele>
        <time>2024-07-18T07:51:53Z</time>
      </trkpt>
      <trkpt lat="44.66423" lon="-1.24149">
        <ele>16.96</ele>
        <time>2024-07-18T07:51:55Z</time>
      </trkpt>
      <trkpt lat="44.66434" lon="-1.24147">
        <ele>17.92</ele>
        <time>2024-07-18T07:52:05Z</time>
      </trkpt>
      <trkpt lat="44.66443" lon="-1.24147">
        <ele>16.96</ele>
        <time>2024-07-18T07:52:15Z</time>
      </trkpt>
      <trkpt lat="44.66445" lon="-1.24148">
        <ele>18.4</ele>
        <time>2024-07-18T07:52:17Z</time>
      </trkpt>
      <trkpt lat="44.66458" lon="-1.24146">
        <ele>19.84</ele>
        <time>2024-07-18T07:52:28Z</time>
      </trkpt>
      <trkpt lat="44.66467" lon="-1.24145">
        <ele>19.84</ele>
        <time>2024-07-18T07:52:37Z</time>
      </trkpt>
      <trkpt lat="44.66478" lon="-1.24147">
        <ele>17.44</ele>
        <time>2024-07-18T07:52:47Z</time>
      </trkpt>
      <trkpt lat="44.66483" lon="-1.24147">
        <ele>15.52</ele>
        <time>2024-07-18T07:52:57Z</time>
      </trkpt>
      <trkpt lat="44.66489" lon="-1.2415">
        <ele>14.08</ele>
        <time>2024-07-18T07:53:06Z</time>
      </trkpt>
      <trkpt lat="44.66497" lon="-1.24153">
        <ele>13.12</ele>
        <time>2024-07-18T07:53:15Z</time>
      </trkpt>
      <trkpt lat="44.66509" lon="-1.24151">
        <ele>11.67</ele>
        <time>2024-07-18T07:53:27Z</time>
      </trkpt>
      <trkpt lat="44.66519" lon="-1.24149">
        <ele>9.75</ele>
        <time>2024-07-18T07:53:34Z</time>
      </trkpt>
      <trkpt lat="44.66533" lon="-1.24145">
        <ele>10.23</ele>
        <time>2024-07-18T07:53:45Z</time>
      </trkpt>
      <trkpt lat="44.66544" lon="-1.24141">
        <ele>10.23</ele>
        <time>2024-07-18T07:53:55Z</time>
      </trkpt>
      <trkpt lat="44.66539" lon="-1.24136">
        <ele>10.71</ele>
        <time>2024-07-18T07:54:05Z</time>
      </trkpt>
      <trkpt lat="44.66535" lon="-1.24129">
        <ele>4.46</ele>
        <time>2024-07-18T07:54:13Z</time>
      </trkpt>
      <trkpt lat="44.66535" lon="-1.24129">
        <ele>13.6</ele>
        <time>2024-07-18T07:54:14Z</time>
      </trkpt>
      <trkpt lat="44.66535" lon="-1.24128">
        <ele>13.12</ele>
        <time>2024-07-18T07:54:15Z</time>
      </trkpt>
      <trkpt lat="44.66537" lon="-1.24127">
        <ele>11.67</ele>
        <time>2024-07-18T07:54:17Z</time>
      </trkpt>
      <trkpt lat="44.66537" lon="-1.24122">
        <ele>13.12</ele>
        <time>2024-07-18T07:54:26Z</time>
      </trkpt>
      <trkpt lat="44.66537" lon="-1.24119">
        <ele>13.12</ele>
        <time>2024-07-18T07:54:27Z</time>
      </trkpt>
      <trkpt lat="44.66537" lon="-1.24114">
        <ele>9.27</ele>
        <time>2024-07-18T07:54:30Z</time>
      </trkpt>
      <trkpt lat="44.66537" lon="-1.24112">
        <ele>13.6</ele>
        <time>2024-07-18T07:54:31Z</time>
      </trkpt>
      <trkpt lat="44.66536" lon="-1.24103">
        <ele>19.84</ele>
        <time>2024-07-18T07:54:38Z</time>
      </trkpt>
      <trkpt lat="44.66537" lon="-1.24102">
        <ele>13.6</ele>
        <time>2024-07-18T07:54:39Z</time>
      </trkpt>
      <trkpt lat="44.66538" lon="-1.24095">
        <ele>15.04</ele>
        <time>2024-07-18T07:54:46Z</time>
      </trkpt>
      <trkpt lat="44.66538" lon="-1.24093">
        <ele>10.71</ele>
        <time>2024-07-18T07:54:48Z</time>
      </trkpt>
      <trkpt lat="44.66538" lon="-1.24092">
        <ele>14.08</ele>
        <time>2024-07-18T07:54:49Z</time>
      </trkpt>
      <trkpt lat="44.66538" lon="-1.24086">
        <ele>11.19</ele>
        <time>2024-07-18T07:54:55Z</time>
      </trkpt>
      <trkpt lat="44.66538" lon="-1.24086">
        <ele>15.52</ele>
        <time>2024-07-18T07:54:56Z</time>
      </trkpt>
      <trkpt lat="44.66537" lon="-1.24076">
        <ele>14.56</ele>
        <time>2024-07-18T07:55:04Z</time>
      </trkpt>
      <trkpt lat="44.66537" lon="-1.24075">
        <ele>14.56</ele>
        <time>2024-07-18T07:55:05Z</time>
      </trkpt>
      <trkpt lat="44.66537" lon="-1.24063">
        <ele>14.08</ele>
        <time>2024-07-18T07:55:17Z</time>
      </trkpt>
      <trkpt lat="44.66539" lon="-1.24052">
        <ele>16</ele>
        <time>2024-07-18T07:55:28Z</time>
      </trkpt>
      <trkpt lat="44.66538" lon="-1.24033">
        <ele>16</ele>
        <time>2024-07-18T07:55:41Z</time>
      </trkpt>
      <trkpt lat="44.66538" lon="-1.24033">
        <ele>16</ele>
        <time>2024-07-18T07:55:52Z</time>
      </trkpt>
      <trkpt lat="44.66536" lon="-1.24033">
        <ele>15.52</ele>
        <time>2024-07-18T07:56:04Z</time>
      </trkpt>
      <trkpt lat="44.66536" lon="-1.24033">
        <ele>16.48</ele>
        <time>2024-07-18T07:56:16Z</time>
      </trkpt>
      <trkpt lat="44.66538" lon="-1.24036">
        <ele>15.52</ele>
        <time>2024-07-18T07:56:30Z</time>
      </trkpt>
      <trkpt lat="44.6654" lon="-1.24037">
        <ele>15.52</ele>
        <time>2024-07-18T07:56:44Z</time>
      </trkpt>
      <trkpt lat="44.66541" lon="-1.24043">
        <ele>16</ele>
        <time>2024-07-18T07:56:56Z</time>
      </trkpt>
      <trkpt lat="44.66538" lon="-1.24039">
        <ele>16</ele>
        <time>2024-07-18T07:57:07Z</time>
      </trkpt>
      <trkpt lat="44.66538" lon="-1.24042">
        <ele>15.52</ele>
        <time>2024-07-18T07:57:20Z</time>
      </trkpt>
      <trkpt lat="44.66535" lon="-1.24047">
        <ele>16</ele>
        <time>2024-07-18T07:57:32Z</time>
      </trkpt>
      <trkpt lat="44.66531" lon="-1.24042">
        <ele>15.52</ele>
        <time>2024-07-18T07:57:42Z</time>
      </trkpt>
      <trkpt lat="44.6653" lon="-1.24041">
        <ele>15.52</ele>
        <time>2024-07-18T07:57:52Z</time>
      </trkpt>
      <trkpt lat="44.66535" lon="-1.24047">
        <ele>16.48</ele>
        <time>2024-07-18T07:58:03Z</time>
      </trkpt>
      <trkpt lat="44.66536" lon="-1.24046">
        <ele>16</ele>
        <time>2024-07-18T07:58:17Z</time>
      </trkpt>
      <trkpt lat="44.66535" lon="-1.24043">
        <ele>16.96</ele>
        <time>2024-07-18T07:58:32Z</time>
      </trkpt>
      <trkpt lat="44.66535" lon="-1.24042">
        <ele>16.48</ele>
        <time>2024-07-18T07:58:46Z</time>
      </trkpt>
      <trkpt lat="44.66535" lon="-1.24042">
        <ele>16</ele>
        <time>2024-07-18T07:59:00Z</time>
      </trkpt>
      <trkpt lat="44.66541" lon="-1.24047">
        <ele>16.48</ele>
        <time>2024-07-18T07:59:09Z</time>
      </trkpt>
      <trkpt lat="44.66541" lon="-1.24043">
        <ele>16</ele>
        <time>2024-07-18T07:59:19Z</time>
      </trkpt>
      <trkpt lat="44.66541" lon="-1.2404">
        <ele>16.48</ele>
        <time>2024-07-18T07:59:30Z</time>
      </trkpt>
      <trkpt lat="44.66541" lon="-1.2404">
        <ele>16.96</ele>
        <time>2024-07-18T07:59:42Z</time>
      </trkpt>
      <trkpt lat="44.6654" lon="-1.24039">
        <ele>16</ele>
        <time>2024-07-18T07:59:57Z</time>
      </trkpt>
      <trkpt lat="44.66539" lon="-1.24037">
        <ele>16.96</ele>
        <time>2024-07-18T08:00:09Z</time>
      </trkpt>
      <trkpt lat="44.66538" lon="-1.24032">
        <ele>16.96</ele>
        <time>2024-07-18T08:00:20Z</time>
      </trkpt>
      <trkpt lat="44.66537" lon="-1.24031">
        <ele>16.96</ele>
        <time>2024-07-18T08:00:21Z</time>
      </trkpt>
      <trkpt lat="44.66531" lon="-1.24023">
        <ele>16.96</ele>
        <time>2024-07-18T08:00:34Z</time>
      </trkpt>
      <trkpt lat="44.66533" lon="-1.24028">
        <ele>16.96</ele>
        <time>2024-07-18T08:00:47Z</time>
      </trkpt>
      <trkpt lat="44.66536" lon="-1.24029">
        <ele>16.96</ele>
        <time>2024-07-18T08:00:59Z</time>
      </trkpt>
      <trkpt lat="44.66534" lon="-1.24028">
        <ele>16.96</ele>
        <time>2024-07-18T08:01:12Z</time>
      </trkpt>
      <trkpt lat="44.66537" lon="-1.24035">
        <ele>16.96</ele>
        <time>2024-07-18T08:01:22Z</time>
      </trkpt>
      <trkpt lat="44.66536" lon="-1.24044">
        <ele>16.96</ele>
        <time>2024-07-18T08:01:28Z</time>
      </trkpt>
      <trkpt lat="44.66535" lon="-1.24067">
        <ele>16.96</ele>
        <time>2024-07-18T08:01:39Z</time>
      </trkpt>
      <trkpt lat="44.66537" lon="-1.24082">
        <ele>15.52</ele>
        <time>2024-07-18T08:01:50Z</time>
      </trkpt>
      <trkpt lat="44.6654" lon="-1.24092">
        <ele>15.04</ele>
        <time>2024-07-18T08:02:00Z</time>
      </trkpt>
      <trkpt lat="44.66539" lon="-1.2411">
        <ele>14.08</ele>
        <time>2024-07-18T08:02:11Z</time>
      </trkpt>
      <trkpt lat="44.66537" lon="-1.24122">
        <ele>13.12</ele>
        <time>2024-07-18T08:02:24Z</time>
      </trkpt>
      <trkpt lat="44.66538" lon="-1.24129">
        <ele>12.15</ele>
        <time>2024-07-18T08:02:34Z</time>
      </trkpt>
      <trkpt lat="44.66551" lon="-1.24139">
        <ele>13.6</ele>
        <time>2024-07-18T08:02:45Z</time>
      </trkpt>
      <trkpt lat="44.66565" lon="-1.24146">
        <ele>13.12</ele>
        <time>2024-07-18T08:02:57Z</time>
      </trkpt>
      <trkpt lat="44.66573" lon="-1.24149">
        <ele>12.63</ele>
        <time>2024-07-18T08:03:08Z</time>
      </trkpt>
      <trkpt lat="44.66594" lon="-1.24157">
        <ele>12.63</ele>
        <time>2024-07-18T08:03:20Z</time>
      </trkpt>
      <trkpt lat="44.6661" lon="-1.24159">
        <ele>12.15</ele>
        <time>2024-07-18T08:03:32Z</time>
      </trkpt>
      <trkpt lat="44.66614" lon="-1.2416">
        <ele>11.67</ele>
        <time>2024-07-18T08:03:34Z</time>
      </trkpt>
      <trkpt lat="44.66629" lon="-1.24165">
        <ele>11.67</ele>
        <time>2024-07-18T08:03:45Z</time>
      </trkpt>
      <trkpt lat="44.66641" lon="-1.24165">
        <ele>12.15</ele>
        <time>2024-07-18T08:03:56Z</time>
      </trkpt>
      <trkpt lat="44.66656" lon="-1.24168">
        <ele>13.12</ele>
        <time>2024-07-18T08:04:09Z</time>
      </trkpt>
      <trkpt lat="44.66672" lon="-1.24172">
        <ele>14.08</ele>
        <time>2024-07-18T08:04:21Z</time>
      </trkpt>
      <trkpt lat="44.66687" lon="-1.2417">
        <ele>12.63</ele>
        <time>2024-07-18T08:04:33Z</time>
      </trkpt>
      <trkpt lat="44.66695" lon="-1.24175">
        <ele>12.63</ele>
        <time>2024-07-18T08:04:44Z</time>
      </trkpt>
      <trkpt lat="44.66699" lon="-1.24176">
        <ele>12.63</ele>
        <time>2024-07-18T08:04:46Z</time>
      </trkpt>
      <trkpt lat="44.66711" lon="-1.24173">
        <ele>12.63</ele>
        <time>2024-07-18T08:04:58Z</time>
      </trkpt>
      <trkpt lat="44.66728" lon="-1.24168">
        <ele>11.19</ele>
        <time>2024-07-18T08:05:09Z</time>
      </trkpt>
      <trkpt lat="44.66743" lon="-1.24166">
        <ele>10.71</ele>
        <time>2024-07-18T08:05:20Z</time>
      </trkpt>
      <trkpt lat="44.66749" lon="-1.24164">
        <ele>10.23</ele>
        <time>2024-07-18T08:05:28Z</time>
      </trkpt>
      <trkpt lat="44.6677" lon="-1.2416">
        <ele>8.79</ele>
        <time>2024-07-18T08:05:40Z</time>
      </trkpt>
      <trkpt lat="44.66773" lon="-1.2416">
        <ele>9.27</ele>
        <time>2024-07-18T08:05:42Z</time>
      </trkpt>
      <trkpt lat="44.66787" lon="-1.24155">
        <ele>7.35</ele>
        <time>2024-07-18T08:05:53Z</time>
      </trkpt>
      <trkpt lat="44.668" lon="-1.24153">
        <ele>6.87</ele>
        <time>2024-07-18T08:06:04Z</time>
      </trkpt>
      <trkpt lat="44.66812" lon="-1.24151">
        <ele>5.42</ele>
        <time>2024-07-18T08:06:13Z</time>
      </trkpt>
      <trkpt lat="44.66821" lon="-1.24151">
        <ele>5.42</ele>
        <time>2024-07-18T08:06:22Z</time>
      </trkpt>
      <trkpt lat="44.66824" lon="-1.24151">
        <ele>4.94</ele>
        <time>2024-07-18T08:06:25Z</time>
      </trkpt>
      <trkpt lat="44.66834" lon="-1.24148">
        <ele>6.39</ele>
        <time>2024-07-18T08:06:34Z</time>
      </trkpt>
      <trkpt lat="44.66843" lon="-1.24153">
        <ele>5.91</ele>
        <time>2024-07-18T08:06:42Z</time>
      </trkpt>
      <trkpt lat="44.66844" lon="-1.24153">
        <ele>8.31</ele>
        <time>2024-07-18T08:06:44Z</time>
      </trkpt>
      <trkpt lat="44.66846" lon="-1.24153">
        <ele>3.5</ele>
        <time>2024-07-18T08:06:51Z</time>
      </trkpt>
      <trkpt lat="44.66846" lon="-1.24152">
        <ele>11.19</ele>
        <time>2024-07-18T08:06:52Z</time>
      </trkpt>
      <trkpt lat="44.66847" lon="-1.24152">
        <ele>8.31</ele>
        <time>2024-07-18T08:06:53Z</time>
      </trkpt>
      <trkpt lat="44.66848" lon="-1.24139">
        <ele>9.75</ele>
        <time>2024-07-18T08:07:05Z</time>
      </trkpt>
      <trkpt lat="44.66855" lon="-1.24136">
        <ele>11.67</ele>
        <time>2024-07-18T08:07:16Z</time>
      </trkpt>
      <trkpt lat="44.66866" lon="-1.2415">
        <ele>12.15</ele>
        <time>2024-07-18T08:07:26Z</time>
      </trkpt>
      <trkpt lat="44.66867" lon="-1.24151">
        <ele>15.04</ele>
        <time>2024-07-18T08:07:34Z</time>
      </trkpt>
      <trkpt lat="44.66862" lon="-1.24146">
        <ele>16</ele>
        <time>2024-07-18T08:07:44Z</time>
      </trkpt>
      <trkpt lat="44.66862" lon="-1.24146">
        <ele>15.04</ele>
        <time>2024-07-18T08:07:45Z</time>
      </trkpt>
      <trkpt lat="44.66873" lon="-1.2414">
        <ele>17.92</ele>
        <time>2024-07-18T08:07:57Z</time>
      </trkpt>
      <trkpt lat="44.66892" lon="-1.24144">
        <ele>21.77</ele>
        <time>2024-07-18T08:08:06Z</time>
      </trkpt>
      <trkpt lat="44.66892" lon="-1.24145">
        <ele>16</ele>
        <time>2024-07-18T08:08:08Z</time>
      </trkpt>
      <trkpt lat="44.66892" lon="-1.24145">
        <ele>21.29</ele>
        <time>2024-07-18T08:08:09Z</time>
      </trkpt>
      <trkpt lat="44.66892" lon="-1.24145">
        <ele>18.4</ele>
        <time>2024-07-18T08:08:11Z</time>
      </trkpt>
      <trkpt lat="44.66898" lon="-1.24146">
        <ele>21.29</ele>
        <time>2024-07-18T08:08:17Z</time>
      </trkpt>
      <trkpt lat="44.66899" lon="-1.24146">
        <ele>17.44</ele>
        <time>2024-07-18T08:08:18Z</time>
      </trkpt>
      <trkpt lat="44.66903" lon="-1.24144">
        <ele>19.36</ele>
        <time>2024-07-18T08:08:25Z</time>
      </trkpt>
      <trkpt lat="44.66907" lon="-1.24145">
        <ele>19.84</ele>
        <time>2024-07-18T08:08:34Z</time>
      </trkpt>
      <trkpt lat="44.66908" lon="-1.24145">
        <ele>17.44</ele>
        <time>2024-07-18T08:08:45Z</time>
      </trkpt>
      <trkpt lat="44.66908" lon="-1.24145">
        <ele>21.29</ele>
        <time>2024-07-18T08:08:46Z</time>
      </trkpt>
      <trkpt lat="44.66908" lon="-1.24145">
        <ele>19.36</ele>
        <time>2024-07-18T08:08:47Z</time>
      </trkpt>
      <trkpt lat="44.66908" lon="-1.24145">
        <ele>21.77</ele>
        <time>2024-07-18T08:09:03Z</time>
      </trkpt>
      <trkpt lat="44.66908" lon="-1.24145">
        <ele>16.48</ele>
        <time>2024-07-18T08:09:09Z</time>
      </trkpt>
      <trkpt lat="44.66908" lon="-1.24145">
        <ele>19.36</ele>
        <time>2024-07-18T08:09:10Z</time>
      </trkpt>
      <trkpt lat="44.66908" lon="-1.24145">
        <ele>19.36</ele>
        <time>2024-07-18T08:09:25Z</time>
      </trkpt>
      <trkpt lat="44.66907" lon="-1.24144">
        <ele>19.36</ele>
        <time>2024-07-18T08:09:37Z</time>
      </trkpt>
      <trkpt lat="44.66912" lon="-1.24141">
        <ele>19.84</ele>
        <time>2024-07-18T08:09:48Z</time>
      </trkpt>
      <trkpt lat="44.66913" lon="-1.24143">
        <ele>23.69</ele>
        <time>2024-07-18T08:10:02Z</time>
      </trkpt>
      <trkpt lat="44.66913" lon="-1.24143">
        <ele>19.84</ele>
        <time>2024-07-18T08:10:03Z</time>
      </trkpt>
      <trkpt lat="44.66916" lon="-1.24144">
        <ele>20.81</ele>
        <time>2024-07-18T08:10:10Z</time>
      </trkpt>
      <trkpt lat="44.66918" lon="-1.24144">
        <ele>18.88</ele>
        <time>2024-07-18T08:10:18Z</time>
      </trkpt>
      <trkpt lat="44.6692" lon="-1.24145">
        <ele>15.04</ele>
        <time>2024-07-18T08:10:20Z</time>
      </trkpt>
      <trkpt lat="44.66921" lon="-1.24146">
        <ele>19.36</ele>
        <time>2024-07-18T08:10:21Z</time>
      </trkpt>
      <trkpt lat="44.66924" lon="-1.24147">
        <ele>16.48</ele>
        <time>2024-07-18T08:10:25Z</time>
      </trkpt>
      <trkpt lat="44.66925" lon="-1.24148">
        <ele>18.88</ele>
        <time>2024-07-18T08:10:26Z</time>
      </trkpt>
      <trkpt lat="44.66927" lon="-1.24148">
        <ele>18.4</ele>
        <time>2024-07-18T08:10:29Z</time>
      </trkpt>
      <trkpt lat="44.66933" lon="-1.24152">
        <ele>17.92</ele>
        <time>2024-07-18T08:10:37Z</time>
      </trkpt>
      <trkpt lat="44.66939" lon="-1.24155">
        <ele>16.96</ele>
        <time>2024-07-18T08:10:46Z</time>
      </trkpt>
      <trkpt lat="44.66946" lon="-1.24158">
        <ele>14.08</ele>
        <time>2024-07-18T08:10:54Z</time>
      </trkpt>
      <trkpt lat="44.66954" lon="-1.24163">
        <ele>14.08</ele>
        <time>2024-07-18T08:11:02Z</time>
      </trkpt>
      <trkpt lat="44.66955" lon="-1.24163">
        <ele>16.48</ele>
        <time>2024-07-18T08:11:03Z</time>
      </trkpt>
      <trkpt lat="44.67029" lon="-1.24071">
        <ele>5.42</ele>
        <time>2024-07-18T08:13:06Z</time>
      </trkpt>
      <trkpt lat="44.67148" lon="-1.24063">
        <ele>2.06</ele>
        <time>2024-07-18T08:14:43Z</time>
      </trkpt>
      <trkpt lat="44.67253" lon="-1.24135">
        <ele>2.54</ele>
        <time>2024-07-18T08:16:16Z</time>
      </trkpt>
      <trkpt lat="44.67357" lon="-1.24204">
        <ele>2.54</ele>
        <time>2024-07-18T08:17:44Z</time>
      </trkpt>
      <trkpt lat="44.67454" lon="-1.24197">
        <ele>1.58</ele>
        <time>2024-07-18T08:19:33Z</time>
      </trkpt>
      <trkpt lat="44.67563" lon="-1.24132">
        <ele>1.58</ele>
        <time>2024-07-18T08:21:10Z</time>
      </trkpt>
      <trkpt lat="44.67525" lon="-1.24021">
        <ele>-0.82</ele>
        <time>2024-07-18T08:22:45Z</time>
      </trkpt>
      <trkpt lat="44.67453" lon="-1.23917">
        <ele>0.14</ele>
        <time>2024-07-18T08:24:37Z</time>
      </trkpt>
      <trkpt lat="44.67519" lon="-1.23852">
        <ele>-2.75</ele>
        <time>2024-07-18T08:27:00Z</time>
      </trkpt>
      <trkpt lat="44.67625" lon="-1.23817">
        <ele>-3.23</ele>
        <time>2024-07-18T08:28:17Z</time>
      </trkpt>
      <trkpt lat="44.67715" lon="-1.23789">
        <ele>-3.23</ele>
        <time>2024-07-18T08:29:25Z</time>
      </trkpt>
      <trkpt lat="44.67812" lon="-1.23787">
        <ele>-0.82</ele>
        <time>2024-07-18T08:30:43Z</time>
      </trkpt>
      <trkpt lat="44.67907" lon="-1.23768">
        <ele>-1.79</ele>
        <time>2024-07-18T08:31:57Z</time>
      </trkpt>
      <trkpt lat="44.68" lon="-1.23752">
        <ele>-1.3</ele>
        <time>2024-07-18T08:33:11Z</time>
      </trkpt>
      <trkpt lat="44.68094" lon="-1.23733">
        <ele>-1.3</ele>
        <time>2024-07-18T08:34:25Z</time>
      </trkpt>
      <trkpt lat="44.68198" lon="-1.23705">
        <ele>-0.82</ele>
        <time>2024-07-18T08:35:45Z</time>
      </trkpt>
      <trkpt lat="44.68298" lon="-1.23672">
        <ele>-2.27</ele>
        <time>2024-07-18T08:37:01Z</time>
      </trkpt>
      <trkpt lat="44.68395" lon="-1.23617">
        <ele>-1.79</ele>
        <time>2024-07-18T08:38:23Z</time>
      </trkpt>
      <trkpt lat="44.68495" lon="-1.23548">
        <ele>-3.23</ele>
        <time>2024-07-18T08:39:52Z</time>
      </trkpt>
      <trkpt lat="44.68599" lon="-1.23492">
        <ele>-0.34</ele>
        <time>2024-07-18T08:41:20Z</time>
      </trkpt>
    </trkseg>
  </trk>
</gpx>